Portsmouth, Virginia - KPWR: 24-hour Summary Portsmouth Weather Records Service - Portsmouth, Virginia



LOCAL CLIMATOLOGICAL DATA: This Month's Data
[updated each morning between 7AM and 9AM]
Station: Portsmouth, Virginia - KPWR Latitude: 36° 48' 04" N Longitude: 76° 19' 37" W Elevation (ground): 13 ft. Time Zone: Eastern

BE SURE TO RELOAD/REFRESH THIS SCREEN FOR DAILY UPDATES BY RIGHT-CLICKING THE BACKGROUND The data in this frame and listed below are final adjusted site data for the time period.

-------------------------------------------------------------------------------------------------------------------------------------------
THURSDAY		Temp	Hi	Low	Out	Dew	Wind	Wind	Wind	Hi	Hi	Wind	Heat	THW			Rain	Heat	Cool	In 	In	In 	In 	Wind	Wind	ISS 	Arc.
Date		Time	Out	Temp	Temp	Hum	Pt.	Speed	Dir	Run	Speed	Dir	Chill	Index	Index	Bar  	Rain	Rate	D-D 	D-D 	Temp	Hum	Dew	Heat	Samp	Tx 	Recept	Int.
11/01/18	1:00 a	56.9	57.5	56.9	87	53.1	5.0	SSW	5.00	12.0	SSW	56.3	56.9	56.3	30.035	0.00	0.00	0.337	0.000	80.4	37	51.7	79.1	1402	1	100.0	60
11/01/18	2:00 a	56.4	57.0	56.4	90	53.5	5.0	SSW	5.00	13.0	S	55.7	56.5	55.8	30.026	0.00	0.00	0.358	0.000	79.7	37	51.1	78.5	1405	1	100.0	60
11/01/18	3:00 a	56.7	56.7	56.3	90	53.8	6.0	SSW	6.00	15.0	WSW	55.6	56.8	55.7	30.015	0.00	0.00	0.346	0.000	80.1	37	51.5	78.8	1405	1	100.0	60
11/01/18	4:00 a	57.1	57.1	56.7	91	54.5	6.0	SSW	6.00	16.0	WSW	56.1	57.2	56.2	30.002	0.00	0.00	0.329	0.000	79.2	37	50.7	78.1	1405	1	100.0	60
11/01/18	5:00 a	57.3	57.3	57.1	93	55.3	5.0	SSW	5.00	15.0	SW	56.8	57.5	57.0	30.006	0.00	0.00	0.321	0.000	79.6	37	51.0	78.4	1405	1	100.0	60
11/01/18	6:00 a	57.2	57.3	57.1	95	55.8	5.0	SSW	5.00	13.0	WSW	56.6	57.4	56.8	30.011	0.00	0.00	0.325	0.000	79.2	37	50.7	78.1	1405	1	100.0	60
11/01/18	7:00 a	56.7	57.2	56.7	96	55.6	4.0	SSW	4.00	11.0	SW	56.6	56.9	56.8	30.010	0.00	0.00	0.346	0.000	79.9	37	51.3	78.6	1405	1	100.0	60
11/01/18	8:00 a	57.3	57.3	56.7	98	56.7	5.0	SSW	5.00	16.0	SW	56.8	57.6	57.1	30.010	0.00	0.00	0.321	0.000	79.4	38	51.6	78.3	1405	1	100.0	60
11/01/18	9:00 a	60.3	60.3	57.3	97	59.4	6.0	SSW	6.00	17.0	SW	60.0	60.8	60.5	30.014	0.00	0.00	0.196	0.000	79.2	38	51.4	78.2	1404	1	100.0	60
11/01/18	10:00 a	65.5	65.5	60.3	90	62.5	10.0	SW	10.00	22.0	SW	63.4	66.7	64.6	30.012	0.00	0.00	0.000	0.021	79.9	38	52.0	78.7	1406	1	100.0	60
11/01/18	11:00 a	69.2	69.2	65.5	86	64.8	7.0	SW	7.00	20.0	SW	69.2	71.0	71.0	29.995	0.00	0.00	0.000	0.175	81.4	38	53.4	80.3	1404	1	100.0	60
11/01/18	12:00 p	72.9	72.9	69.2	76	64.9	11.0	SW	11.00	29.0	SW	70.4	74.4	71.9	29.970	0.00	0.00	0.000	0.329	83.5	38	55.2	83.1	1405	1	100.0	60
11/01/18	1:00 p	75.0	75.1	72.9	72	65.4	12.0	SW	12.00	33.0	SW	72.2	76.9	74.1	29.951	0.00	0.00	0.000	0.417	84.7	38	56.3	84.5	1405	1	100.0	60
11/01/18	2:00 p	76.3	76.3	75.1	68	65.0	12.0	SW	12.00	29.0	S	73.6	77.9	75.2	29.933	0.00	0.00	0.000	0.471	85.3	39	57.5	85.3	1405	1	100.0	60
11/01/18	3:00 p	75.6	76.9	75.6	70	65.1	11.0	SSW	11.00	25.0	SSE	73.3	77.4	75.1	29.925	0.00	0.00	0.000	0.442	85.9	39	58.1	85.9	1405	1	100.0	60
11/01/18	4:00 p	76.3	76.5	75.5	70	65.8	7.0	SSW	7.00	22.0	SW	76.3	78.1	78.1	29.914	0.00	0.00	0.000	0.471	87.0	39	59.0	87.2	1405	1	100.0	60
11/01/18	5:00 p	75.6	76.4	75.6	72	65.9	6.0	SSW	6.00	18.0	SW	75.6	77.6	77.6	29.899	0.00	0.00	0.000	0.442	86.9	39	59.0	87.0	1405	1	100.0	60
11/01/18	6:00 p	74.0	75.6	74.0	76	66.0	4.0	S	4.00	12.0	S	74.0	75.9	75.9	29.886	0.00	0.00	0.000	0.375	86.4	40	59.2	86.7	1405	1	100.0	60
11/01/18	7:00 p	71.5	74.0	71.5	80	65.0	6.0	SSE	6.00	18.0	SSE	71.5	72.9	72.9	29.889	0.00	0.00	0.000	0.271	85.8	40	58.7	86.0	1405	1	100.0	60
11/01/18	8:00 p	70.8	71.5	70.8	83	65.4	10.0	S	10.00	23.0	SSE	68.7	72.3	70.2	29.889	0.00	0.00	0.000	0.242	84.4	41	58.1	84.8	1405	1	100.0	60
11/01/18	9:00 p	71.0	71.0	70.8	84	65.9	11.0	S	11.00	23.0	S	68.4	72.7	70.1	29.878	0.00	0.00	0.000	0.250	84.0	41	57.8	84.5	1405	1	100.0	60
11/01/18	10:00 p	70.9	71.0	70.8	86	66.5	11.0	S	11.00	24.0	SSE	68.3	72.8	70.2	29.876	0.00	0.00	0.000	0.246	83.7	42	58.2	84.1	1405	1	100.0	60
11/01/18	11:00 p	70.9	71.0	70.8	87	66.8	11.0	S	11.00	26.0	SSE	68.3	72.8	70.2	29.859	0.00	0.00	0.000	0.246	83.4	42	57.9	83.7	1405	1	100.0	60
11/02/18	12:00 a	70.5	71.0	70.5	90	67.4	11.0	S	11.00	23.0	SSE	67.9	72.6	70.0	29.833	0.01	0.00	0.000	0.229	83.2	43	58.4	83.5	1404	1	100.0	60

FRIDAY			Temp	Hi	Low	Out	Dew	Wind	Wind	Wind	Hi	Hi	Wind	Heat	THW			Rain	Heat	Cool	In 	In	In 	In 	Wind	Wind	ISS 	Arc.
Date		Time	Out	Temp	Temp	Hum	Pt.	Speed	Dir	Run	Speed	Dir	Chill	Index	Index	Bar  	Rain	Rate	D-D 	D-D 	Temp	Hum	Dew	Heat	Samp	Tx 	Recept	Int.
11/02/18	1:00 a	70.0	70.5	69.9	92	67.6	11.0	S	11.00	28.0	SSE	67.4	72.2	69.6	29.812	0.00	0.00	0.000	0.208	83.5	43	58.6	84.0	1403	1	100.0	60
11/02/18	2:00 a	69.5	70.1	69.5	95	68.0	11.0	S	11.00	26.0	S	66.9	71.9	69.3	29.791	0.00	0.00	0.000	0.188	83.2	43	58.4	83.5	1405	1	100.0	60
11/02/18	3:00 a	70.0	70.0	69.5	95	68.5	12.0	S	12.00	27.0	SSE	66.9	72.5	69.4	29.766	0.00	0.00	0.000	0.208	83.1	44	58.9	83.5	1405	1	100.0	60
11/02/18	4:00 a	70.2	70.2	70.0	95	68.7	12.0	S	12.00	25.0	S	67.1	72.7	69.6	29.775	0.00	0.00	0.000	0.217	82.9	44	58.7	83.2	1405	1	100.0	60
11/02/18	5:00 a	70.2	70.2	70.1	94	68.4	7.0	SSW	7.00	18.0	SSE	70.2	72.6	72.6	29.782	0.00	0.00	0.000	0.217	82.7	45	59.2	83.0	1405	1	100.0	60
11/02/18	6:00 a	70.1	70.2	70.0	95	68.6	6.0	SSW	6.00	14.0	S	70.1	72.6	72.6	29.790	0.00	0.00	0.000	0.212	82.6	44	58.5	82.7	1405	1	100.0	60
11/02/18	7:00 a	69.8	70.2	69.8	97	68.9	6.0	S	6.00	16.0	SSE	69.8	72.6	72.6	29.777	0.02	0.00	0.000	0.200	82.7	44	58.6	82.9	1405	1	100.0	60
11/02/18	8:00 a	69.7	69.8	69.7	98	69.1	5.0	S	5.00	17.0	SSE	69.7	72.7	72.7	29.781	0.00	0.00	0.000	0.196	83.2	44	59.0	83.7	1405	1	100.0	60
11/02/18	9:00 a	70.4	70.4	69.8	98	69.8	6.0	S	6.00	16.0	S	70.4	73.6	73.6	29.812	0.00	0.00	0.000	0.225	83.2	44	59.0	83.7	1405	1	100.0	60
11/02/18	10:00 a	71.2	71.2	70.4	98	70.6	6.0	S	6.00	18.0	S	71.2	74.5	74.5	29.811	0.00	0.00	0.000	0.258	83.4	44	59.2	84.0	1405	1	100.0	60
11/02/18	11:00 a	72.1	72.1	71.2	96	70.9	7.0	S	7.00	21.0	SSE	72.1	75.1	75.1	29.800	0.00	0.00	0.000	0.296	83.8	45	60.2	84.8	1405	1	100.0	60
11/02/18	12:00 p	72.2	72.4	72.1	94	70.4	7.0	S	7.00	19.0	SSE	72.2	74.9	74.9	29.780	0.00	0.00	0.000	0.300	83.8	45	60.2	84.8	1404	1	100.0	60
11/02/18	1:00 p	72.2	72.2	72.0	94	70.4	6.0	SSW	6.00	16.0	S	72.2	74.9	74.9	29.772	0.01	0.00	0.000	0.300	83.9	46	60.9	85.1	1405	1	100.0	60
11/02/18	2:00 p	72.8	72.8	72.2	93	70.7	7.0	S	7.00	19.0	SSE	72.8	75.5	75.5	29.738	0.00	0.00	0.000	0.325	84.1	46	61.1	85.3	1405	1	100.0	60
11/02/18	3:00 p	73.6	73.6	72.8	94	71.8	5.0	S	5.00	15.0	SSE	73.6	76.4	76.4	29.734	0.00	0.00	0.000	0.358	84.4	46	61.4	85.6	1405	1	100.0	60
11/02/18	4:00 p	74.8	74.8	73.6	92	72.3	6.0	S	6.00	16.0	S	74.8	78.1	78.1	29.714	0.00	0.00	0.000	0.408	84.5	45	60.8	85.5	1405	1	100.0	60
11/02/18	5:00 p	74.0	74.8	74.0	92	71.5	5.0	S	5.00	16.0	S	74.0	76.6	76.6	29.721	0.00	0.00	0.000	0.375	84.5	45	60.8	85.5	1405	1	100.0	60
11/02/18	6:00 p	72.8	74.0	72.8	94	71.0	6.0	SSE	6.00	15.0	SSE	72.8	75.5	75.5	29.699	0.00	0.00	0.000	0.325	84.3	45	60.6	85.4	1405	1	100.0	60
11/02/18	7:00 p	71.5	72.8	71.5	94	69.7	10.0	SSE	10.00	20.0	S	69.4	74.1	72.0	29.689	0.01	0.00	0.000	0.271	84.2	45	60.6	85.3	1405	1	100.0	60
11/02/18	8:00 p	70.4	71.5	70.4	89	67.0	10.0	S	10.00	22.0	SSE	68.3	72.4	70.3	29.679	0.00	0.00	0.000	0.225	84.0	45	60.4	85.1	1405	1	100.0	60
11/02/18	9:00 p	69.6	70.4	69.6	88	65.9	7.0	S	7.00	18.0	SE	69.6	71.4	71.4	29.681	0.00	0.00	0.000	0.192	83.8	45	60.2	84.8	1405	1	100.0	60
11/02/18	10:00 p	69.8	69.8	69.5	87	65.8	10.0	S	10.00	20.0	SSE	67.7	71.5	69.4	29.680	0.00	0.00	0.000	0.200	83.5	45	59.9	84.3	1405	1	100.0	60
11/02/18	11:00 p	70.2	70.2	69.8	90	67.1	10.0	S	10.00	19.0	SSE	68.1	72.2	70.1	29.665	0.00	0.00	0.000	0.217	83.3	46	60.4	84.1	1405	1	100.0	60
11/03/18	12:00 a	70.3	70.3	70.1	93	68.2	10.0	S	10.00	21.0	S	68.2	72.7	70.6	29.667	0.00	0.00	0.000	0.221	83.2	46	60.3	84.0	1405	1	100.0	60

SATURDAY		Temp	Hi	Low	Out	Dew	Wind	Wind	Wind	Hi	Hi	Wind	Heat	THW			Rain	Heat	Cool	In 	In	In 	In 	Wind	Wind	ISS 	Arc.
Date		Time	Out	Temp	Temp	Hum	Pt.	Speed	Dir	Run	Speed	Dir	Chill	Index	Index	Bar  	Rain	Rate	D-D 	D-D 	Temp	Hum	Dew	Heat	Samp	Tx 	Recept	Int.
11/03/18	1:00 a	70.6	70.6	70.3	93	68.5	10.0	S	10.00	20.0	S	68.5	73.0	70.9	29.639	0.00	0.00	0.000	0.233	82.4	47	60.1	82.8	1403	1	100.0	60
11/03/18	2:00 a	66.4	70.6	66.4	95	64.9	7.0	SSW	7.00	23.0	WSW	66.4	67.9	67.9	29.665	0.09	0.75	0.000	0.058	82.2	47	60.0	82.5	1406	1	100.0	60
11/03/18	3:00 a	64.9	66.5	64.9	96	63.7	6.0	SW	6.00	15.0	WSW	64.9	66.1	66.1	29.668	0.00	0.00	0.004	0.000	81.7	47	59.5	81.8	1404	1	100.0	60
11/03/18	4:00 a	63.5	64.9	63.5	95	62.0	6.0	SW	6.00	20.0	SW	63.5	64.4	64.4	29.675	0.01	0.00	0.063	0.000	81.5	47	59.3	81.5	1405	1	100.0	60
11/03/18	5:00 a	62.5	63.5	62.5	95	61.0	7.0	SSW	7.00	24.0	SW	62.3	63.3	63.1	29.693	0.00	0.00	0.104	0.000	81.2	47	59.1	81.1	1405	1	100.0	60
11/03/18	6:00 a	60.8	62.5	60.8	91	58.2	7.0	SW	7.00	24.0	SSW	60.2	61.2	60.6	29.741	0.00	0.00	0.175	0.000	80.7	47	58.6	80.5	1405	1	100.0	60
11/03/18	7:00 a	59.1	60.8	59.1	89	55.9	7.0	SW	7.00	22.0	SW	58.1	59.3	58.3	29.782	0.00	0.00	0.246	0.000	80.4	47	58.3	80.2	1405	1	100.0	60
11/03/18	8:00 a	57.3	59.1	57.3	86	53.1	11.0	W	11.00	25.0	SSE	53.2	57.2	53.1	29.841	0.00	0.00	0.321	0.000	79.9	47	57.9	79.7	1405	1	100.0	60
11/03/18	9:00 a	55.9	57.3	55.8	85	51.5	11.0	W	11.00	23.0	W	51.6	55.8	51.5	29.909	0.00	0.00	0.379	0.000	80.2	47	58.1	80.0	1405	1	100.0	60
11/03/18	10:00 a	56.4	56.6	55.9	79	50.0	11.0	W	11.00	25.0	WNW	52.2	56.0	51.8	29.975	0.00	0.00	0.358	0.000	80.6	46	57.9	80.3	1405	1	100.0	60
11/03/18	11:00 a	57.7	57.7	56.4	69	47.6	11.0	WNW	11.00	24.0	WSW	53.7	56.9	52.9	30.014	0.00	0.00	0.304	0.000	82.3	44	58.2	82.2	1405	1	100.0	60
11/03/18	12:00 p	59.1	59.1	57.7	64	46.9	11.0	W	11.00	21.0	W	55.3	58.0	54.2	30.034	0.00	0.00	0.246	0.000	83.9	43	59.0	84.6	1405	1	100.0	60
11/03/18	1:00 p	60.2	60.2	59.1	59	45.8	10.0	WNW	10.00	20.0	W	57.2	58.9	55.9	30.051	0.00	0.00	0.200	0.000	84.4	42	58.8	85.0	1405	1	100.0	60
11/03/18	2:00 p	61.4	61.4	60.2	57	46.0	11.0	WNW	11.00	23.0	NNW	57.9	60.0	56.5	30.073	0.00	0.00	0.150	0.000	83.7	42	58.2	84.1	1404	1	100.0	60
11/03/18	3:00 p	62.2	62.2	61.4	52	44.3	12.0	WNW	12.00	26.0	WNW	58.2	60.5	56.5	30.093	0.00	0.00	0.117	0.000	84.6	41	58.3	85.0	1405	1	100.0	60
11/03/18	4:00 p	62.5	62.5	62.1	51	44.1	10.0	W	10.00	21.0	WNW	59.9	60.7	58.1	30.123	0.00	0.00	0.104	0.000	85.7	40	58.6	85.9	1405	1	100.0	60
11/03/18	5:00 p	62.0	62.5	62.0	51	43.7	7.0	WNW	7.00	18.0	W	61.7	60.2	59.9	30.150	0.00	0.00	0.125	0.000	84.1	41	57.9	84.5	1405	1	100.0	60
11/03/18	6:00 p	60.2	62.0	60.2	59	45.8	4.0	W	4.00	13.0	WSW	60.2	58.9	58.9	30.199	0.00	0.00	0.200	0.000	83.9	42	58.3	84.5	1405	1	100.0	60
11/03/18	7:00 p	56.2	60.2	56.2	70	46.5	0.0	W	0.00	6.0	W	56.2	55.4	55.4	30.249	0.00	0.00	0.367	0.000	82.6	42	57.2	82.4	1405	1	100.0	60
11/03/18	8:00 p	52.9	56.1	52.8	77	45.9	0.0	W	0.00	7.0	WSW	52.9	52.5	52.5	30.284	0.00	0.00	0.504	0.000	81.2	42	55.9	80.5	1405	1	100.0	60
11/03/18	9:00 p	50.3	52.9	50.3	82	45.0	0.0	W	0.00	4.0	W	50.3	50.3	50.3	30.296	0.00	0.00	0.613	0.000	80.1	42	54.9	79.3	1405	1	100.0	60
11/03/18	10:00 p	48.3	50.3	48.3	85	44.0	0.0	---	0.00	0.0	---	48.3	48.3	48.3	30.317	0.00	0.00	0.696	0.000	79.0	42	53.9	78.4	1405	1	100.0	60
11/03/18	11:00 p	46.7	48.4	46.7	88	43.3	0.0	---	0.00	0.0	---	46.7	46.8	46.8	30.344	0.00	0.00	0.762	0.000	79.0	42	53.9	78.4	1405	1	100.0	60
11/04/18	12:00 a	45.4	46.7	45.4	90	42.6	0.0	NW	0.00	6.0	NW	45.4	45.5	45.5	30.351	0.00	0.00	0.817	0.000	78.3	42	53.3	77.6	1405	1	100.0	60

SUNDAY			Temp	Hi	Low	Out	Dew	Wind	Wind	Wind	Hi	Hi	Wind	Heat	THW			Rain	Heat	Cool	In 	In	In 	In 	Wind	Wind	ISS 	Arc.
Date		Time	Out	Temp	Temp	Hum	Pt.	Speed	Dir	Run	Speed	Dir	Chill	Index	Index	Bar  	Rain	Rate	D-D 	D-D 	Temp	Hum	Dew	Heat	Samp	Tx 	Recept	Int.
11/04/18	1:00 a	44.5	45.5	44.5	92	42.3	0.0	---	0.00	0.0	---	44.5	44.6	44.6	30.367	0.00	0.00	0.854	0.000	78.6	40	52.3	77.8	1403	1	100.0	60
11/04/18	2:00 a	44.0	44.5	44.0	93	42.1	0.0	WNW	0.00	5.0	WNW	44.0	44.2	44.2	30.383	0.00	0.00	0.875	0.000	77.5	40	51.3	76.6	1405	1	100.0	60
11/04/18	3:00 a	44.9	44.9	44.0	96	43.8	0.0	NE	0.00	7.0	NNE	44.9	45.1	45.1	30.388	0.00	0.00	0.837	0.000	77.4	40	51.2	76.6	1405	1	100.0	60
11/04/18	4:00 a	51.2	51.2	44.9	82	45.9	5.0	NE	5.00	15.0	NE	49.6	51.1	49.5	30.393	0.00	0.00	0.575	0.000	77.5	40	51.3	76.6	1405	1	100.0	60
11/04/18	5:00 a	51.4	51.5	51.2	77	44.4	5.0	NE	5.00	14.0	NNE	49.9	51.1	49.6	30.405	0.00	0.00	0.567	0.000	76.6	40	50.5	75.8	1405	1	100.0	60
11/04/18	6:00 a	51.0	51.4	51.0	72	42.3	6.0	NE	6.00	13.0	ENE	48.9	50.6	48.5	30.431	0.00	0.00	0.583	0.000	76.8	40	50.6	76.0	1405	1	100.0	60
11/04/18	7:00 a	49.1	50.8	49.1	76	41.9	4.0	NE	4.00	11.0	NE	47.8	48.8	47.5	30.461	0.00	0.00	0.663	0.000	77.8	39	50.9	76.8	1405	1	100.0	60
11/04/18	8:00 a	52.7	52.7	48.8	82	47.4	5.0	NE	5.00	13.0	ENE	51.4	52.5	51.2	30.481	0.00	0.00	0.512	0.000	79.9	38	52.0	78.7	1405	1	100.0	60
11/04/18	9:00 a	56.6	56.6	52.7	75	48.8	7.0	NE	7.00	16.0	NE	55.1	56.1	54.6	30.481	0.00	0.00	0.350	0.000	80.1	38	52.2	78.9	1405	1	100.0	60
11/04/18	10:00 a	59.4	59.5	56.6	64	47.2	11.0	NE	11.00	21.0	ENE	55.6	58.4	54.6	30.471	0.00	0.00	0.233	0.000	80.8	38	52.8	79.6	1405	1	100.0	60
11/04/18	11:00 a	61.0	61.0	59.4	62	47.9	11.0	ENE	11.00	21.0	NE	57.5	60.0	56.5	30.466	0.00	0.00	0.167	0.000	81.7	38	53.6	80.7	1405	1	100.0	60
11/04/18	12:00 p	62.0	62.0	61.0	63	49.3	10.0	ENE	10.00	19.0	NE	59.3	61.1	58.4	30.442	0.00	0.00	0.125	0.000	82.3	37	53.4	81.3	1405	1	100.0	60
11/04/18	1:00 p	62.4	62.6	62.0	64	50.1	10.0	NE	10.00	22.0	NE	59.8	61.6	59.0	30.419	0.00	0.00	0.108	0.000	82.1	38	54.0	81.2	1404	1	100.0	60
11/04/18	2:00 p	63.1	63.1	62.3	66	51.6	7.0	ENE	7.00	19.0	ENE	63.0	62.6	62.5	30.405	0.00	0.00	0.079	0.000	83.5	37	54.5	82.9	1406	1	100.0	60
11/04/18	3:00 p	61.8	63.2	61.8	70	51.9	6.0	ENE	6.00	18.0	NE	61.8	61.3	61.3	30.393	0.00	0.00	0.133	0.000	83.6	37	54.6	83.1	1405	1	100.0	60
11/04/18	4:00 p	61.0	61.8	61.0	74	52.7	6.0	ENE	6.00	18.0	ENE	60.8	60.6	60.4	30.379	0.00	0.00	0.167	0.000	83.0	38	54.8	82.3	1404	1	100.0	60
11/04/18	5:00 p	59.4	61.0	59.4	80	53.2	5.0	ENE	5.00	16.0	ENE	59.3	59.2	59.1	30.367	0.00	0.00	0.233	0.000	82.5	39	55.0	81.9	1405	1	100.0	60
11/04/18	6:00 p	58.6	59.4	58.6	84	53.8	5.0	ENE	5.00	14.0	NE	58.3	58.5	58.2	30.352	0.00	0.00	0.267	0.000	82.8	40	56.0	82.4	1406	1	100.0	60
11/04/18	7:00 p	58.4	58.6	58.3	87	54.5	6.0	ENE	6.00	14.0	NE	57.7	58.4	57.7	30.337	0.00	0.00	0.275	0.000	81.7	40	55.0	80.9	1404	1	100.0	60
11/04/18	8:00 p	58.6	58.7	58.4	88	55.1	4.0	ENE	4.00	13.0	NNE	58.6	58.7	58.7	30.323	0.00	0.00	0.267	0.000	80.9	40	54.3	79.9	1405	1	100.0	60
11/04/18	9:00 p	59.8	59.8	58.6	88	56.2	5.0	ENE	5.00	16.0	ENE	59.8	60.0	60.0	30.311	0.00	0.00	0.217	0.000	80.2	40	53.7	79.2	1405	1	100.0	60
11/04/18	10:00 p	59.9	60.0	59.7	88	56.3	4.0	ENE	4.00	11.0	NE	59.9	60.1	60.1	30.314	0.00	0.00	0.212	0.000	79.6	40	53.1	78.7	1405	1	100.0	60
11/04/18	11:00 p	60.6	60.6	59.9	86	56.4	4.0	NE	4.00	10.0	SE	60.6	60.8	60.8	30.302	0.00	0.00	0.183	0.000	79.2	40	52.8	78.4	1405	1	100.0	60
11/05/18	12:00 a	61.6	61.6	60.6	89	58.3	4.0	SE	4.00	14.0	SW	61.6	62.0	62.0	30.260	0.00	0.00	0.142	0.000	79.8	40	53.3	78.8	1406	1	100.0	60

MONDAY			Temp	Hi	Low	Out	Dew	Wind	Wind	Wind	Hi	Hi	Wind	Heat	THW			Rain	Heat	Cool	In 	In	In 	In 	Wind	Wind	ISS 	Arc.
Date		Time	Out	Temp	Temp	Hum	Pt.	Speed	Dir	Run	Speed	Dir	Chill	Index	Index	Bar  	Rain	Rate	D-D 	D-D 	Temp	Hum	Dew	Heat	Samp	Tx 	Recept	Int.
11/05/18	1:00 a	62.8	62.8	61.6	90	59.8	5.0	E	5.00	14.0	ENE	62.8	63.5	63.5	30.237	0.00	0.00	0.092	0.000	79.2	41	53.5	78.5	1402	1	100.0	60
11/05/18	2:00 a	63.4	63.4	62.8	90	60.4	5.0	E	5.00	18.0	NNE	63.4	64.1	64.1	30.222	0.00	0.00	0.067	0.000	79.7	41	53.9	78.9	1405	1	100.0	60
11/05/18	3:00 a	63.9	63.9	63.3	90	60.9	5.0	ENE	5.00	14.0	NE	63.9	64.7	64.7	30.197	0.00	0.00	0.046	0.000	79.6	41	53.8	78.8	1405	1	100.0	60
11/05/18	4:00 a	63.5	64.1	63.5	93	61.4	5.0	ENE	5.00	14.0	ENE	63.5	64.3	64.3	30.147	0.04	0.19	0.063	0.000	79.5	41	53.7	78.7	1405	1	100.0	60
11/05/18	5:00 a	62.9	63.5	62.8	97	62.0	6.0	SE	6.00	10.0	SSE	62.9	63.8	63.8	30.136	0.13	0.25	0.087	0.000	79.1	41	53.4	78.4	1405	1	100.0	60
11/05/18	6:00 a	63.6	63.6	62.9	98	63.0	5.0	E	5.00	15.0	SSE	63.6	64.6	64.6	30.109	0.02	0.11	0.058	0.000	79.8	41	54.0	79.0	1405	1	100.0	60
11/05/18	7:00 a	64.8	64.8	63.6	99	64.5	5.0	SSE	5.00	16.0	S	64.8	66.0	66.0	30.090	0.00	0.00	0.008	0.000	79.4	41	53.6	78.6	1405	1	100.0	60
11/05/18	8:00 a	66.4	66.4	64.8	100	66.4	7.0	SSE	7.00	20.0	SSE	66.4	68.0	68.0	30.099	0.00	0.00	0.000	0.058	79.5	42	54.4	78.8	1405	1	100.0	60
11/05/18	9:00 a	67.8	67.8	66.4	100	67.8	11.0	SSE	11.00	22.0	SSE	65.2	69.8	67.2	30.066	0.00	0.00	0.000	0.117	80.1	43	55.6	79.5	1405	1	100.0	60
11/05/18	10:00 a	68.3	68.3	67.8	100	68.3	12.0	SSE	12.00	25.0	S	65.2	70.6	67.5	30.066	0.06	0.25	0.000	0.138	80.2	44	56.3	79.7	1405	1	100.0	60
11/05/18	11:00 a	69.4	69.4	68.3	100	69.4	6.0	SSE	6.00	16.0	SSE	69.4	72.5	72.5	30.062	0.04	0.27	0.000	0.183	80.6	44	56.7	80.1	1405	1	100.0	60
11/05/18	12:00 p	70.0	70.5	69.4	98	69.4	6.0	S	6.00	17.0	NW	70.0	73.1	73.1	30.047	0.01	0.00	0.000	0.208	80.8	44	56.9	80.3	1405	1	100.0	60
11/05/18	1:00 p	68.7	70.0	68.3	98	68.1	6.0	WNW	6.00	18.0	W	68.7	71.1	71.1	30.037	0.00	0.00	0.000	0.154	81.0	44	57.0	80.5	1405	1	100.0	60
11/05/18	2:00 p	69.6	69.6	68.7	93	67.5	5.0	W	5.00	15.0	W	69.6	71.9	71.9	30.038	0.00	0.00	0.000	0.192	81.2	43	56.6	80.6	1405	1	100.0	60
11/05/18	3:00 p	69.6	69.7	69.5	92	67.2	6.0	W	6.00	16.0	SW	69.6	71.8	71.8	30.040	0.00	0.00	0.000	0.192	81.7	43	57.0	81.3	1404	1	100.0	60
11/05/18	4:00 p	69.2	69.9	69.2	91	66.5	5.0	SW	5.00	15.0	WSW	69.2	71.3	71.3	30.046	0.00	0.00	0.000	0.175	81.8	43	57.1	81.4	1405	1	100.0	60
11/05/18	5:00 p	67.7	69.3	67.7	93	65.6	5.0	SW	5.00	13.0	WSW	67.7	69.4	69.4	30.056	0.00	0.00	0.000	0.112	81.6	44	57.6	81.3	1406	1	100.0	60
11/05/18	6:00 p	66.9	67.7	66.9	94	65.1	4.0	SW	4.00	12.0	SW	66.9	68.5	68.5	30.056	0.00	0.00	0.000	0.079	81.5	44	57.5	81.1	1404	1	100.0	60
11/05/18	7:00 p	66.6	67.0	66.5	94	64.8	4.0	W	4.00	7.0	WSW	66.6	68.1	68.1	30.063	0.00	0.00	0.000	0.067	81.8	44	57.8	81.5	1405	1	100.0	60
11/05/18	8:00 p	65.8	66.5	65.7	95	64.3	4.0	W	4.00	12.0	W	65.8	67.2	67.2	30.067	0.00	0.00	0.000	0.033	83.1	43	58.3	83.3	1405	1	100.0	60
11/05/18	9:00 p	64.8	65.8	64.8	95	63.3	5.0	W	5.00	13.0	WSW	64.8	66.0	66.0	30.081	0.00	0.00	0.008	0.000	82.4	44	58.3	82.4	1405	1	100.0	60
11/05/18	10:00 p	64.3	64.8	64.3	95	62.8	0.0	WSW	0.00	6.0	WNW	64.3	65.4	65.4	30.084	0.00	0.00	0.029	0.000	82.9	44	58.7	83.2	1405	1	100.0	60
11/05/18	11:00 p	63.7	64.3	63.7	96	62.5	0.0	W	0.00	6.0	WSW	63.7	64.7	64.7	30.063	0.00	0.00	0.054	0.000	82.3	44	58.2	82.2	1405	1	100.0	60
11/06/18	12:00 a	63.0	63.7	63.0	97	62.1	0.0	N	0.00	5.0	NNW	63.0	63.9	63.9	30.054	0.00	0.00	0.083	0.000	82.8	44	58.7	83.0	1405	1	100.0	60

TUESDAY			Temp	Hi	Low	Out	Dew	Wind	Wind	Wind	Hi	Hi	Wind	Heat	THW			Rain	Heat	Cool	In 	In	In 	In 	Wind	Wind	ISS 	Arc.
Date		Time	Out	Temp	Temp	Hum	Pt.	Speed	Dir	Run	Speed	Dir	Chill	Index	Index	Bar  	Rain	Rate	D-D 	D-D 	Temp	Hum	Dew	Heat	Samp	Tx 	Recept	Int.
11/06/18	1:00 a	63.3	63.3	63.0	98	62.7	0.0	SE	0.00	5.0	ESE	63.3	64.3	64.3	30.043	0.00	0.00	0.071	0.000	81.7	45	58.3	81.5	1404	1	100.0	60
11/06/18	2:00 a	63.4	63.4	63.3	98	62.8	0.0	---	0.00	0.0	---	63.4	64.4	64.4	30.032	0.00	0.00	0.067	0.000	81.1	45	57.7	80.7	1404	1	100.0	60
11/06/18	3:00 a	63.3	63.4	63.3	99	63.0	0.0	---	0.00	0.0	---	63.3	64.3	64.3	30.012	0.00	0.00	0.071	0.000	80.5	45	57.2	80.1	1405	1	100.0	60
11/06/18	4:00 a	63.5	63.5	63.3	99	63.2	4.0	SE	4.00	10.0	SSE	63.5	64.5	64.5	30.002	0.00	0.00	0.063	0.000	80.3	46	57.6	80.0	1406	1	100.0	60
11/06/18	5:00 a	63.9	63.9	63.5	100	63.9	6.0	SSE	6.00	12.0	S	63.9	65.0	65.0	30.007	0.00	0.00	0.046	0.000	80.0	46	57.4	79.7	1404	1	100.0	60
11/06/18	6:00 a	64.5	64.5	63.9	100	64.5	7.0	SSE	7.00	21.0	SSE	64.5	65.7	65.7	29.971	0.00	0.00	0.021	0.000	79.8	46	57.2	79.5	1405	1	100.0	60
11/06/18	7:00 a	65.6	65.6	64.5	100	65.6	10.0	SSE	10.00	17.0	SSE	63.5	67.0	64.9	29.958	0.00	0.00	0.000	0.025	79.7	46	57.1	79.4	1405	1	100.0	60
11/06/18	8:00 a	67.9	67.9	65.6	100	67.9	7.0	S	7.00	21.0	SSE	67.9	69.9	69.9	29.972	0.00	0.00	0.000	0.121	79.9	48	58.5	79.8	1405	1	100.0	60
11/06/18	9:00 a	70.1	70.1	67.9	100	70.1	10.0	S	10.00	19.0	S	68.0	73.6	71.5	29.965	0.00	0.00	0.000	0.212	80.9	48	59.4	80.9	1405	1	100.0	60
11/06/18	10:00 a	72.9	72.9	70.1	96	71.7	10.0	S	10.00	24.0	S	70.8	75.9	73.8	29.933	0.00	0.00	0.000	0.329	81.6	49	60.6	81.9	1405	1	100.0	60
11/06/18	11:00 a	77.5	77.5	72.9	86	73.0	11.0	S	11.00	33.0	SSE	75.3	81.5	79.3	29.906	0.00	0.00	0.000	0.521	78.9	54	60.8	79.4	1405	1	100.0	60
11/06/18	12:00 p	79.7	80.0	77.5	80	73.0	11.0	SSW	11.00	27.0	SSE	77.8	84.0	82.1	29.880	0.00	0.00	0.000	0.612	80.1	55	62.5	80.8	1405	1	100.0	60
11/06/18	1:00 p	80.4	80.5	79.6	78	72.9	12.0	SW	12.00	28.0	SE	78.2	84.9	82.7	29.852	0.00	0.00	0.000	0.642	80.8	55	63.1	81.7	1405	1	100.0	60
11/06/18	2:00 p	80.2	80.6	80.2	76	71.9	11.0	SSW	11.00	23.0	WSW	78.3	84.1	82.2	29.840	0.00	0.00	0.000	0.633	81.2	55	63.5	82.2	1405	1	100.0	60
11/06/18	3:00 p	80.1	80.2	80.0	78	72.6	7.0	SSW	7.00	19.0	SW	80.1	84.3	84.3	29.829	0.00	0.00	0.000	0.629	81.6	55	63.9	82.8	1405	1	100.0	60
11/06/18	4:00 p	75.2	80.1	75.2	92	72.7	6.0	SW	6.00	18.0	W	75.2	78.8	78.8	29.863	0.05	1.00	0.000	0.425	81.5	55	63.8	82.7	1405	1	100.0	60
11/06/18	5:00 p	70.7	75.2	70.7	78	63.5	6.0	WNW	6.00	23.0	W	70.7	71.7	71.7	29.892	0.00	0.00	0.000	0.237	81.2	55	63.5	82.2	1404	1	100.0	60
11/06/18	6:00 p	67.8	70.7	67.8	88	64.1	4.0	WSW	4.00	14.0	WSW	67.8	69.4	69.4	29.892	0.00	0.00	0.000	0.117	80.7	55	63.0	81.5	1405	1	100.0	60
11/06/18	7:00 p	66.4	67.9	66.4	89	63.1	0.0	SSE	0.00	7.0	SSE	66.4	67.7	67.7	29.898	0.00	0.00	0.000	0.058	80.6	54	62.4	81.3	1405	1	100.0	60
11/06/18	8:00 p	65.4	66.4	65.4	93	63.3	0.0	SW	0.00	7.0	SSE	65.4	66.6	66.6	29.918	0.00	0.00	0.000	0.017	80.1	54	62.0	80.7	1405	1	100.0	60
11/06/18	9:00 p	64.8	65.4	64.8	93	62.7	0.0	SW	0.00	5.0	SSW	64.8	65.9	65.9	29.938	0.00	0.00	0.008	0.000	79.6	54	61.5	80.2	1405	1	100.0	60
11/06/18	10:00 p	64.3	64.8	64.3	94	62.5	4.0	SSW	4.00	10.0	SSW	64.3	65.3	65.3	29.957	0.00	0.00	0.029	0.000	82.3	49	61.2	82.9	1405	1	100.0	60
11/06/18	11:00 p	63.2	64.3	63.2	95	61.7	4.0	W	4.00	11.0	W	63.2	64.0	64.0	29.951	0.00	0.00	0.075	0.000	82.3	49	61.2	82.9	1405	1	100.0	60
11/07/18	12:00 a	61.6	63.2	61.6	95	60.2	4.0	W	4.00	7.0	WSW	61.6	62.2	62.2	29.966	0.00	0.00	0.142	0.000	82.0	48	60.4	82.3	1405	1	100.0	60

WEDNESDAY		Temp	Hi	Low	Out	Dew	Wind	Wind	Wind	Hi	Hi	Wind	Heat	THW			Rain	Heat	Cool	In 	In	In 	In 	Wind	Wind	ISS 	Arc.
Date		Time	Out	Temp	Temp	Hum	Pt.	Speed	Dir	Run	Speed	Dir	Chill	Index	Index	Bar  	Rain	Rate	D-D 	D-D 	Temp	Hum	Dew	Heat	Samp	Tx 	Recept	Int.
11/07/18	1:00 a	59.9	61.7	59.9	96	58.8	0.0	SSW	0.00	5.0	SSW	59.9	60.3	60.3	29.979	0.00	0.00	0.212	0.000	81.4	48	59.8	81.5	1404	1	100.0	60
11/07/18	2:00 a	59.9	60.0	59.7	97	59.0	0.0	SSW	0.00	5.0	SSW	59.9	60.4	60.4	29.988	0.00	0.00	0.212	0.000	81.0	48	59.5	81.0	1405	1	100.0	60
11/07/18	3:00 a	58.1	60.0	58.1	96	57.0	0.0	WSW	0.00	5.0	SSW	58.1	58.4	58.4	29.988	0.00	0.00	0.288	0.000	80.5	48	59.0	80.4	1405	1	100.0	60
11/07/18	4:00 a	57.5	58.1	57.2	97	56.7	4.0	WNW	4.00	14.0	WNW	57.5	57.8	57.8	30.001	0.00	0.00	0.313	0.000	79.9	48	58.5	79.8	1404	1	100.0	60
11/07/18	5:00 a	56.6	57.5	56.6	93	54.6	4.0	WNW	4.00	13.0	W	56.5	56.8	56.7	30.031	0.00	0.00	0.350	0.000	79.3	48	57.9	79.3	1405	1	100.0	60
11/07/18	6:00 a	54.3	56.6	54.3	92	52.0	0.0	WNW	0.00	4.0	WNW	54.3	54.4	54.4	30.051	0.00	0.00	0.446	0.000	78.7	48	57.4	78.7	1405	1	100.0	60
11/07/18	7:00 a	52.1	54.3	52.1	94	50.4	0.0	---	0.00	0.0	---	52.1	52.4	52.4	30.077	0.00	0.00	0.538	0.000	78.1	48	56.8	78.0	1405	1	100.0	60
11/07/18	8:00 a	52.7	52.7	51.7	97	51.9	0.0	---	0.00	0.0	---	52.7	53.1	53.1	30.104	0.00	0.00	0.512	0.000	78.2	48	56.9	78.1	1405	1	100.0	60
11/07/18	9:00 a	59.8	59.8	52.7	78	52.9	4.0	NE	4.00	10.0	E	59.8	59.6	59.6	30.103	0.00	0.00	0.217	0.000	79.1	47	57.1	79.0	1405	1	100.0	60
11/07/18	10:00 a	64.9	64.9	59.8	66	53.3	4.0	ENE	4.00	11.0	ENE	64.9	64.6	64.6	30.108	0.00	0.00	0.004	0.000	80.7	46	58.0	80.4	1405	1	100.0	60
11/07/18	11:00 a	67.2	67.2	65.0	69	56.7	6.0	SSE	6.00	14.0	SE	67.2	67.6	67.6	30.097	0.00	0.00	0.000	0.092	83.0	44	58.8	83.3	1405	1	100.0	60
11/07/18	12:00 p	68.6	68.6	67.2	63	55.5	7.0	S	7.00	15.0	SSE	68.6	68.4	68.4	30.082	0.00	0.00	0.000	0.150	84.2	44	59.9	85.1	1405	1	100.0	60
11/07/18	1:00 p	70.0	70.0	68.6	59	55.0	6.0	SSE	6.00	16.0	S	70.0	69.1	69.1	30.061	0.00	0.00	0.000	0.208	84.1	45	60.5	85.2	1405	1	100.0	60
11/07/18	2:00 p	70.5	70.5	70.0	60	55.9	6.0	S	6.00	14.0	SSE	70.5	69.8	69.8	30.051	0.00	0.00	0.000	0.229	86.1	44	61.6	87.1	1405	1	100.0	60
11/07/18	3:00 p	70.4	70.7	70.4	64	57.6	7.0	SSE	7.00	17.0	SSE	70.4	70.1	70.1	30.053	0.00	0.00	0.000	0.225	86.9	43	61.7	88.0	1405	1	100.0	60
11/07/18	4:00 p	69.1	70.4	69.1	63	56.0	7.0	SSE	7.00	18.0	S	69.1	68.8	68.8	30.061	0.00	0.00	0.000	0.171	86.2	43	61.1	87.0	1405	1	100.0	60
11/07/18	5:00 p	66.7	69.1	66.7	66	55.0	6.0	SSE	6.00	15.0	SSE	66.7	66.7	66.7	30.070	0.00	0.00	0.000	0.071	85.3	44	60.9	86.2	1405	1	100.0	60
11/07/18	6:00 p	63.3	66.7	63.3	73	54.5	0.0	SSE	0.00	7.0	SSE	63.3	63.2	63.2	30.077	0.00	0.00	0.071	0.000	84.2	45	60.6	85.3	1404	1	100.0	60
11/07/18	7:00 p	59.9	63.2	59.9	81	54.1	0.0	SSE	0.00	5.0	SSE	59.9	59.8	59.8	30.080	0.00	0.00	0.212	0.000	85.1	44	60.7	85.9	1405	1	100.0	60
11/07/18	8:00 p	57.9	59.9	57.9	86	53.7	0.0	SSE	0.00	5.0	SSE	57.9	57.8	57.8	30.074	0.00	0.00	0.296	0.000	85.7	43	60.6	86.4	1405	1	100.0	60
11/07/18	9:00 p	56.8	57.9	56.8	90	53.9	0.0	SSE	0.00	4.0	SSE	56.8	56.9	56.9	30.075	0.00	0.00	0.342	0.000	84.8	43	59.8	85.5	1405	1	100.0	60
11/07/18	10:00 p	56.5	56.8	56.2	93	54.5	0.0	---	0.00	0.0	---	56.5	56.7	56.7	30.091	0.00	0.00	0.354	0.000	84.0	43	59.1	84.8	1405	1	100.0	60
11/07/18	11:00 p	57.3	57.3	56.5	95	55.9	0.0	SSE	0.00	4.0	SSE	57.3	57.5	57.5	30.093	0.00	0.00	0.321	0.000	84.1	43	59.2	84.9	1405	1	100.0	60
11/08/18	12:00 a	59.0	59.0	57.3	96	57.9	0.0	NNW	0.00	7.0	N	59.0	59.4	59.4	30.077	0.00	0.00	0.250	0.000	83.6	44	59.4	84.3	1406	1	100.0	60

THURSDAY		Temp	Hi	Low	Out	Dew	Wind	Wind	Wind	Hi	Hi	Wind	Heat	THW			Rain	Heat	Cool	In 	In	In 	In 	Wind	Wind	ISS 	Arc.
Date		Time	Out	Temp	Temp	Hum	Pt.	Speed	Dir	Run	Speed	Dir	Chill	Index	Index	Bar  	Rain	Rate	D-D 	D-D 	Temp	Hum	Dew	Heat	Samp	Tx 	Recept	Int.
11/08/18	1:00 a	59.6	59.7	59.0	96	58.5	0.0	ENE	0.00	6.0	NE	59.6	60.0	60.0	30.069	0.00	0.00	0.225	0.000	82.5	44	58.4	82.6	1403	1	100.0	60
11/08/18	2:00 a	61.1	61.1	59.7	94	59.4	4.0	NE	4.00	10.0	NE	61.1	61.6	61.6	30.044	0.00	0.00	0.163	0.000	81.6	45	58.2	81.4	1405	1	100.0	60
11/08/18	3:00 a	62.5	62.5	61.1	93	60.4	5.0	NE	5.00	14.0	E	62.5	63.2	63.2	30.050	0.00	0.00	0.104	0.000	81.0	45	57.7	80.6	1405	1	100.0	60
11/08/18	4:00 a	62.8	62.8	62.5	91	60.1	5.0	NE	5.00	14.0	E	62.8	63.5	63.5	30.052	0.00	0.00	0.092	0.000	80.6	45	57.3	80.2	1405	1	100.0	60
11/08/18	5:00 a	63.1	63.1	62.8	87	59.2	5.0	NE	5.00	15.0	ENE	63.1	63.7	63.7	30.067	0.00	0.00	0.079	0.000	80.2	45	56.9	79.8	1404	1	100.0	60
11/08/18	6:00 a	62.8	63.1	62.8	89	59.5	6.0	NE	6.00	14.0	ENE	62.8	63.4	63.4	30.074	0.00	0.00	0.092	0.000	80.1	45	56.8	79.7	1405	1	100.0	60
11/08/18	7:00 a	61.4	62.8	61.4	90	58.4	10.0	NE	10.00	20.0	ENE	58.6	61.8	59.0	30.104	0.00	0.00	0.150	0.000	80.4	44	56.5	79.9	1405	1	100.0	60
11/08/18	8:00 a	61.6	61.6	61.1	71	52.1	12.0	NE	12.00	26.0	NNE	57.6	61.1	57.1	30.145	0.00	0.00	0.142	0.000	80.4	44	56.5	79.9	1405	1	100.0	60
11/08/18	9:00 a	61.2	61.6	61.0	71	51.7	12.0	NE	12.00	30.0	NNE	57.1	60.7	56.6	30.164	0.00	0.00	0.158	0.000	80.4	44	56.5	79.9	1405	1	100.0	60
11/08/18	10:00 a	61.6	61.6	61.2	71	52.1	13.0	NE	13.00	23.0	NE	57.1	61.1	56.6	30.195	0.00	0.00	0.142	0.000	80.9	46	58.2	80.6	1405	1	100.0	60
11/08/18	11:00 a	62.2	62.2	61.6	73	53.4	12.0	NE	12.00	30.0	ENE	58.2	61.9	57.9	30.195	0.00	0.00	0.117	0.000	77.0	50	56.9	76.8	1405	1	100.0	60
11/08/18	12:00 p	62.9	63.0	62.2	68	52.2	15.0	NE	15.00	29.0	E	57.9	62.5	57.5	30.185	0.00	0.00	0.087	0.000	77.2	49	56.6	77.0	1405	1	100.0	60
11/08/18	1:00 p	62.0	62.9	62.0	66	50.5	15.0	NE	15.00	29.0	NE	56.8	61.3	56.1	30.173	0.00	0.00	0.125	0.000	77.3	49	56.6	77.1	1405	1	100.0	60
11/08/18	2:00 p	60.9	62.2	60.9	69	50.7	14.0	NE	14.00	26.0	ENE	55.9	60.3	55.3	30.176	0.00	0.00	0.171	0.000	77.7	48	56.4	77.5	1405	1	100.0	60
11/08/18	3:00 p	59.5	61.0	59.5	67	48.5	14.0	NE	14.00	24.0	ENE	54.4	58.7	53.6	30.180	0.00	0.00	0.229	0.000	77.7	49	57.0	77.6	1405	1	100.0	60
11/08/18	4:00 p	58.4	59.5	58.4	73	49.8	12.0	NE	12.00	24.0	ENE	53.9	57.8	53.3	30.190	0.00	0.00	0.275	0.000	77.0	49	56.4	76.7	1405	1	100.0	60
11/08/18	5:00 p	57.4	58.4	57.3	74	49.2	11.0	NE	11.00	20.0	NE	53.3	56.8	52.7	30.192	0.00	0.00	0.317	0.000	76.3	49	55.7	76.2	1405	1	100.0	60
11/08/18	6:00 p	56.4	57.4	56.4	76	48.9	7.0	NE	7.00	16.0	NE	54.9	55.9	54.4	30.208	0.00	0.00	0.358	0.000	80.9	43	56.3	80.3	1405	1	100.0	60
11/08/18	7:00 p	56.8	56.8	56.2	73	48.2	10.0	NE	10.00	22.0	NE	53.3	56.2	52.7	30.224	0.00	0.00	0.342	0.000	80.8	42	55.6	80.0	1405	1	100.0	60
11/08/18	8:00 p	56.9	57.0	56.8	68	46.4	11.0	NE	11.00	21.0	NE	52.8	56.0	51.9	30.235	0.00	0.00	0.337	0.000	80.9	41	55.0	80.0	1404	1	100.0	60
11/08/18	9:00 p	56.9	56.9	56.9	69	46.8	11.0	NE	11.00	20.0	ENE	52.8	56.1	52.0	30.240	0.00	0.00	0.337	0.000	79.8	41	54.0	79.0	1406	1	100.0	60
11/08/18	10:00 p	56.7	56.9	56.7	75	48.9	11.0	NE	11.00	20.0	NE	52.5	56.2	52.0	30.239	0.00	0.00	0.346	0.000	82.3	40	55.6	81.7	1404	1	100.0	60
11/08/18	11:00 p	56.8	56.8	56.6	77	49.7	10.0	NE	10.00	18.0	ENE	53.3	56.4	52.9	30.221	0.00	0.00	0.342	0.000	82.4	40	55.7	81.9	1405	1	100.0	60
11/09/18	12:00 a	56.7	56.9	56.7	75	48.9	7.0	NE	7.00	19.0	NNE	55.2	56.2	54.7	30.223	0.00	0.00	0.346	0.000	82.3	40	55.6	81.7	1405	1	100.0	60

FRIDAY			Temp	Hi	Low	Out	Dew	Wind	Wind	Wind	Hi	Hi	Wind	Heat	THW			Rain	Heat	Cool	In 	In	In 	In 	Wind	Wind	ISS 	Arc.
Date		Time	Out	Temp	Temp	Hum	Pt.	Speed	Dir	Run	Speed	Dir	Chill	Index	Index	Bar  	Rain	Rate	D-D 	D-D 	Temp	Hum	Dew	Heat	Samp	Tx 	Recept	Int.
11/09/18	1:00 a	56.3	56.7	56.3	72	47.4	11.0	NE	11.00	18.0	NNE	52.1	55.6	51.4	30.205	0.00	0.00	0.363	0.000	81.7	40	55.0	80.9	1404	1	100.0	60
11/09/18	2:00 a	56.5	56.5	56.3	77	49.4	7.0	NE	7.00	17.0	NE	55.0	56.1	54.6	30.199	0.00	0.00	0.354	0.000	81.7	40	55.0	80.9	1405	1	100.0	60
11/09/18	3:00 a	56.3	56.6	56.3	78	49.5	7.0	NE	7.00	18.0	ENE	54.8	55.9	54.4	30.199	0.00	0.00	0.363	0.000	81.8	40	55.1	81.0	1405	1	100.0	60
11/09/18	4:00 a	55.7	56.3	55.7	82	50.3	10.0	NE	10.00	19.0	ENE	51.9	55.5	51.7	30.185	0.00	0.00	0.387	0.000	81.6	40	54.9	80.8	1405	1	100.0	60
11/09/18	5:00 a	56.0	56.0	55.7	85	51.6	10.0	NE	10.00	19.0	NE	52.3	55.9	52.2	30.174	0.00	0.00	0.375	0.000	81.1	40	54.5	80.1	1405	1	100.0	60
11/09/18	6:00 a	56.8	57.6	56.0	84	52.0	7.0	ENE	7.00	20.0	ENE	55.4	56.7	55.3	30.173	0.01	0.00	0.342	0.000	80.7	41	54.8	79.8	1404	1	100.0	60
11/09/18	7:00 a	56.2	56.8	55.9	87	52.4	10.0	ENE	10.00	20.0	ENE	52.5	56.2	52.5	30.162	0.00	0.00	0.367	0.000	79.8	41	54.0	79.0	1406	1	100.0	60
11/09/18	8:00 a	57.0	57.0	55.9	90	54.1	11.0	ENE	11.00	20.0	ENE	52.9	57.1	53.0	30.134	0.02	0.25	0.333	0.000	79.9	41	54.1	79.0	1404	1	100.0	60
11/09/18	9:00 a	57.7	57.8	57.0	93	55.7	6.0	ENE	6.00	19.0	E	56.8	57.9	57.0	30.126	0.01	0.00	0.304	0.000	79.9	41	54.1	79.0	1405	1	100.0	60
11/09/18	10:00 a	58.6	58.6	57.7	92	56.3	6.0	ENE	6.00	17.0	NE	57.9	58.8	58.1	30.088	0.01	0.00	0.267	0.000	79.5	41	53.7	78.7	1405	1	100.0	60
11/09/18	11:00 a	60.0	60.0	58.6	96	58.9	4.0	ENE	4.00	14.0	NE	60.0	60.4	60.4	30.049	0.01	0.00	0.208	0.000	79.5	41	53.7	78.7	1405	1	100.0	60
11/09/18	12:00 p	62.5	62.5	60.0	93	60.4	5.0	SSE	5.00	14.0	SSE	62.5	63.2	63.2	30.014	0.00	0.00	0.104	0.000	79.5	41	53.7	78.7	1405	1	100.0	60
11/09/18	1:00 p	64.3	64.3	62.5	93	62.2	5.0	SSE	5.00	15.0	SSE	64.3	65.3	65.3	29.969	0.00	0.00	0.029	0.000	79.4	41	53.6	78.6	1405	1	100.0	60
11/09/18	2:00 p	65.8	65.8	64.3	92	63.4	6.0	SE	6.00	17.0	S	65.8	67.1	67.1	29.931	0.00	0.00	0.000	0.033	79.6	42	54.5	78.9	1405	1	100.0	60
11/09/18	3:00 p	67.5	67.5	65.8	92	65.1	7.0	SSE	7.00	14.0	SSE	67.5	69.2	69.2	29.900	0.00	0.00	0.000	0.104	79.9	42	54.8	79.2	1405	1	100.0	60
11/09/18	4:00 p	67.9	67.9	67.5	93	65.8	5.0	S	5.00	15.0	SSE	67.9	69.7	69.7	29.887	0.00	0.00	0.000	0.121	80.1	43	55.6	79.5	1405	1	100.0	60
11/09/18	5:00 p	66.6	67.9	66.6	93	64.5	5.0	SW	5.00	18.0	WNW	66.6	68.1	68.1	29.896	0.00	0.00	0.000	0.067	80.2	43	55.7	79.6	1405	1	100.0	60
11/09/18	6:00 p	62.9	66.6	62.9	93	60.8	6.0	W	6.00	17.0	W	62.9	63.6	63.6	29.893	0.00	0.00	0.087	0.000	79.9	43	55.4	79.3	1405	1	100.0	60
11/09/18	7:00 p	61.3	62.9	61.3	95	59.9	4.0	WSW	4.00	12.0	W	61.3	61.9	61.9	29.892	0.00	0.00	0.154	0.000	80.8	43	56.2	80.2	1405	1	100.0	60
11/09/18	8:00 p	59.7	61.3	59.7	96	58.6	6.0	SW	6.00	16.0	W	59.2	60.1	59.6	29.886	0.00	0.00	0.221	0.000	80.0	43	55.5	79.4	1404	1	100.0	60
11/09/18	9:00 p	59.1	59.7	59.0	96	58.0	6.0	W	6.00	17.0	W	58.5	59.5	58.9	29.902	0.00	0.00	0.246	0.000	79.6	43	55.1	79.0	1405	1	100.0	60
11/09/18	10:00 p	58.4	59.1	58.4	96	57.3	6.0	W	6.00	16.0	W	57.7	58.8	58.1	29.908	0.00	0.00	0.275	0.000	81.4	43	56.8	80.9	1405	1	100.0	60
11/09/18	11:00 p	57.4	58.4	57.4	97	56.6	5.0	W	5.00	15.0	SW	56.9	57.7	57.2	29.907	0.00	0.00	0.317	0.000	81.8	43	57.1	81.4	1405	1	100.0	60
11/10/18	12:00 a	57.1	57.4	57.0	98	56.5	5.0	SW	5.00	13.0	WSW	56.5	57.4	56.8	29.894	0.01	0.00	0.329	0.000	80.7	43	56.1	80.1	1405	1	100.0	60

SATURDAY		Temp	Hi	Low	Out	Dew	Wind	Wind	Wind	Hi	Hi	Wind	Heat	THW			Rain	Heat	Cool	In 	In	In 	In 	Wind	Wind	ISS 	Arc.
Date		Time	Out	Temp	Temp	Hum	Pt.	Speed	Dir	Run	Speed	Dir	Chill	Index	Index	Bar  	Rain	Rate	D-D 	D-D 	Temp	Hum	Dew	Heat	Samp	Tx 	Recept	Int.
11/10/18	1:00 a	56.9	57.2	56.9	96	55.8	6.0	W	6.00	15.0	WNW	55.9	57.1	56.1	29.902	0.00	0.00	0.337	0.000	80.0	43	55.5	79.4	1404	1	100.0	60
11/10/18	2:00 a	56.2	56.9	56.2	94	54.5	6.0	W	6.00	17.0	WSW	55.0	56.4	55.2	29.909	0.00	0.00	0.367	0.000	79.4	44	55.6	79.0	1405	1	100.0	60
11/10/18	3:00 a	55.5	56.3	55.5	92	53.2	6.0	W	6.00	15.0	WNW	54.2	55.6	54.3	29.928	0.00	0.00	0.396	0.000	78.9	44	55.1	78.5	1405	1	100.0	60
11/10/18	4:00 a	54.2	55.5	54.2	92	51.9	5.0	NW	5.00	16.0	WNW	53.1	54.3	53.2	29.936	0.00	0.00	0.450	0.000	78.4	44	54.7	77.9	1405	1	100.0	60
11/10/18	5:00 a	53.0	54.2	52.9	93	51.0	6.0	NW	6.00	16.0	W	51.2	53.2	51.4	29.948	0.00	0.00	0.500	0.000	77.9	44	54.2	77.4	1405	1	100.0	60
11/10/18	6:00 a	52.9	53.0	52.8	93	50.9	6.0	NW	6.00	17.0	NW	51.1	53.1	51.3	29.974	0.00	0.00	0.504	0.000	77.3	44	53.7	76.8	1405	1	100.0	60
11/10/18	7:00 a	52.7	52.9	52.7	92	50.4	6.0	NW	6.00	15.0	NW	50.8	52.9	51.0	29.994	0.00	0.00	0.512	0.000	78.8	43	54.4	78.3	1404	1	100.0	60
11/10/18	8:00 a	52.4	52.8	52.4	92	50.1	7.0	NNW	7.00	15.0	NNW	50.1	52.6	50.3	30.027	0.00	0.00	0.525	0.000	80.6	43	56.0	80.0	1405	1	100.0	60
11/10/18	9:00 a	51.8	52.4	51.5	91	49.3	7.0	NNW	7.00	18.0	NW	49.4	52.0	49.6	30.054	0.00	0.00	0.550	0.000	80.7	42	55.5	79.9	1405	1	100.0	60
11/10/18	10:00 a	52.4	52.4	51.8	73	44.0	11.0	NW	11.00	27.0	NNW	47.5	51.9	47.0	30.073	0.00	0.00	0.525	0.000	80.4	42	55.2	79.6	1405	1	100.0	60
11/10/18	11:00 a	53.2	53.6	52.4	68	42.9	13.0	NNW	13.00	25.0	NW	47.5	52.4	46.7	30.086	0.00	0.00	0.492	0.000	81.0	41	55.1	80.1	1405	1	100.0	60
11/10/18	12:00 p	53.7	53.8	53.1	64	41.8	12.0	NNW	12.00	21.0	NW	48.5	52.7	47.5	30.099	0.00	0.00	0.471	0.000	81.0	40	54.4	80.0	1405	1	100.0	60
11/10/18	1:00 p	53.6	53.9	53.6	64	41.7	12.0	NNW	12.00	21.0	WNW	48.4	52.6	47.4	30.098	0.00	0.00	0.475	0.000	80.5	39	53.3	79.4	1405	1	100.0	60
11/10/18	2:00 p	53.1	54.0	53.1	61	40.0	12.0	NNW	12.00	24.0	NNW	47.8	52.0	46.7	30.115	0.00	0.00	0.496	0.000	81.7	38	53.6	80.7	1405	1	100.0	60
11/10/18	3:00 p	53.0	53.2	52.8	56	37.7	12.0	NNW	12.00	23.0	NNW	47.7	51.7	46.4	30.141	0.00	0.00	0.500	0.000	81.7	38	53.6	80.7	1405	1	100.0	60
11/10/18	4:00 p	52.1	53.0	52.0	54	35.9	12.0	NNW	12.00	21.0	NNW	46.7	50.8	45.4	30.175	0.00	0.00	0.538	0.000	81.6	37	52.8	80.4	1405	1	100.0	60
11/10/18	5:00 p	49.6	52.0	49.6	46	29.6	11.0	NNW	11.00	22.0	NNW	44.3	48.3	43.0	30.203	0.00	0.00	0.642	0.000	80.0	38	52.1	78.8	1405	1	100.0	60
11/10/18	6:00 p	47.5	49.6	47.5	47	28.3	7.0	NNW	7.00	19.0	NNW	44.2	46.2	42.9	30.221	0.00	0.00	0.729	0.000	79.7	37	51.1	78.5	1405	1	100.0	60
11/10/18	7:00 p	46.7	47.5	46.7	48	28.0	6.0	NNW	6.00	16.0	NNW	43.7	45.5	42.5	30.251	0.00	0.00	0.762	0.000	80.1	37	51.5	78.8	1405	1	100.0	60
11/10/18	8:00 p	46.0	46.7	45.9	48	27.4	7.0	NNW	7.00	17.0	NW	42.4	44.8	41.2	30.274	0.00	0.00	0.792	0.000	79.5	37	50.9	78.3	1404	1	100.0	60
11/10/18	9:00 p	44.9	46.0	44.9	54	29.2	10.0	NE	10.00	19.0	NW	39.4	43.9	38.4	30.299	0.00	0.00	0.837	0.000	78.8	36	49.6	77.7	1405	1	100.0	60
11/10/18	10:00 p	43.2	44.8	43.2	51	26.3	10.0	NE	10.00	21.0	NE	37.3	42.1	36.2	30.314	0.00	0.00	0.908	0.000	77.9	36	48.8	76.7	1405	1	100.0	60
11/10/18	11:00 p	42.2	43.2	42.2	49	24.4	10.0	NNW	10.00	19.0	NNE	36.2	41.1	35.1	30.323	0.00	0.00	0.950	0.000	77.5	36	48.4	76.4	1405	1	100.0	60
11/11/18	12:00 a	41.3	42.2	41.3	54	25.9	10.0	NNW	10.00	18.0	NNW	35.2	40.3	34.2	30.329	0.00	0.00	0.988	0.000	77.4	35	47.6	76.3	1406	1	100.0	60
SUNDAY			Temp	Hi	Low	Out	Dew	Wind	Wind	Wind	Hi	Hi	Wind	Heat	THW			Rain	Heat	Cool	In 	In	In 	In 	Wind	Wind	ISS 	Arc.
Date		Time	Out	Temp	Temp	Hum	Pt.	Speed	Dir	Run	Speed	Dir	Chill	Index	Index	Bar  	Rain	Rate	D-D 	D-D 	Temp	Hum	Dew	Heat	Samp	Tx 	Recept	Int.
11/11/18	1:00 a	40.4	41.3	40.4	57	26.4	7.0	N	7.00	19.0	NNW	35.6	39.5	34.7	30.335	0.00	0.00	1.025	0.000	76.3	35	46.6	75.2	1403	1	100.0	60
11/11/18	2:00 a	39.8	40.4	39.8	60	27.0	10.0	NNW	10.00	21.0	NNW	33.4	39.0	32.6	30.341	0.00	0.00	1.050	0.000	76.0	35	46.4	74.8	1405	1	100.0	60
11/11/18	3:00 a	39.6	39.8	39.5	65	28.8	7.0	NNW	7.00	18.0	NW	34.7	38.9	34.0	30.353	0.00	0.00	1.058	0.000	75.7	35	46.1	74.5	1405	1	100.0	60
11/11/18	4:00 a	39.1	39.6	39.1	70	30.1	6.0	NNW	6.00	16.0	ENE	34.7	38.5	34.1	30.354	0.00	0.00	1.079	0.000	75.7	34	45.3	74.4	1404	1	100.0	60
11/11/18	5:00 a	37.6	39.1	37.6	74	30.1	6.0	NW	6.00	15.0	N	32.9	37.2	32.5	30.388	0.00	0.00	1.142	0.000	76.0	34	45.6	74.7	1405	1	100.0	60
11/11/18	6:00 a	36.9	37.6	36.9	76	30.0	6.0	NNW	6.00	15.0	N	32.1	36.5	31.7	30.404	0.00	0.00	1.171	0.000	76.4	34	45.9	75.2	1405	1	100.0	60
11/11/18	7:00 a	36.9	36.9	36.6	79	31.0	2.0	NNW	2.00	8.0	NW	36.4	36.6	36.1	30.420	0.00	0.00	1.171	0.000	76.8	33	45.5	75.7	1405	1	100.0	60
11/11/18	8:00 a	39.1	39.1	36.9	77	32.5	6.0	NW	6.00	14.0	WNW	34.7	38.7	34.3	30.435	0.00	0.00	1.079	0.000	77.9	33	46.5	76.5	1405	1	100.0	60
11/11/18	9:00 a	41.7	41.7	39.1	74	34.0	5.0	NNW	5.00	13.0	NNW	38.4	41.3	38.0	30.442	0.00	0.00	0.971	0.000	78.6	33	47.1	77.2	1405	1	100.0	60
11/11/18	10:00 a	44.6	44.6	41.7	64	33.2	6.0	ENE	6.00	16.0	ENE	41.2	43.9	40.5	30.436	0.00	0.00	0.850	0.000	80.0	33	48.3	78.3	1405	1	100.0	60
11/11/18	11:00 a	45.8	45.8	44.5	62	33.5	7.0	ENE	7.00	17.0	NE	42.2	45.0	41.4	30.422	0.00	0.00	0.800	0.000	81.3	32	48.6	79.5	1405	1	100.0	60
11/11/18	12:00 p	46.8	46.8	45.8	61	34.0	7.0	NE	7.00	16.0	NNE	43.4	46.0	42.6	30.393	0.00	0.00	0.758	0.000	81.6	32	48.9	79.9	1405	1	100.0	60
11/11/18	1:00 p	47.4	47.4	46.7	59	33.8	7.0	ENE	7.00	16.0	ENE	44.1	46.6	43.3	30.372	0.00	0.00	0.733	0.000	80.8	32	48.2	79.0	1405	1	100.0	60
11/11/18	2:00 p	48.0	48.1	47.4	56	33.0	6.0	ENE	6.00	13.0	NNE	45.3	47.0	44.3	30.364	0.00	0.00	0.708	0.000	82.3	31	48.6	80.5	1405	1	100.0	60
11/11/18	3:00 p	48.0	48.3	47.9	56	33.0	7.0	NNW	7.00	16.0	NNW	44.8	47.0	43.8	30.363	0.00	0.00	0.708	0.000	82.7	31	49.0	80.9	1405	1	100.0	60
11/11/18	4:00 p	47.2	48.0	47.2	58	33.2	6.0	ENE	6.00	16.0	NNW	44.3	46.3	43.4	30.367	0.00	0.00	0.742	0.000	82.1	32	49.3	80.4	1405	1	100.0	60
11/11/18	5:00 p	45.4	47.2	45.4	62	33.1	5.0	NE	5.00	11.0	NE	42.8	44.6	42.0	30.364	0.00	0.00	0.817	0.000	81.5	32	48.8	79.8	1404	1	100.0	60
11/11/18	6:00 p	43.3	45.4	43.2	68	33.4	4.0	ENE	4.00	7.0	ENE	41.1	42.7	40.5	30.373	0.00	0.00	0.904	0.000	80.5	32	47.9	78.7	1406	1	100.0	60
11/11/18	7:00 p	41.3	43.2	41.3	76	34.3	0.0	ENE	0.00	6.0	ENE	41.3	40.9	40.9	30.381	0.00	0.00	0.988	0.000	81.4	32	48.7	79.7	1404	1	100.0	60
11/11/18	8:00 p	39.0	41.3	39.0	82	34.0	0.0	ENE	0.00	4.0	ENE	39.0	38.7	38.7	30.384	0.00	0.00	1.083	0.000	80.8	32	48.2	79.0	1405	1	100.0	60
11/11/18	9:00 p	37.7	39.0	37.7	84	33.3	0.0	ENE	0.00	4.0	ENE	37.7	37.5	37.5	30.385	0.00	0.00	1.137	0.000	80.3	32	47.7	78.5	1405	1	100.0	60
11/11/18	10:00 p	36.5	37.7	36.5	87	33.0	0.0	---	0.00	0.0	---	36.5	36.3	36.3	30.386	0.00	0.00	1.188	0.000	80.5	32	47.9	78.7	1405	1	100.0	60
11/11/18	11:00 p	35.9	36.5	35.9	89	33.0	0.0	ENE	0.00	4.0	ENE	35.9	35.8	35.8	30.380	0.00	0.00	1.212	0.000	80.2	32	47.7	78.4	1405	1	100.0	60
11/12/18	12:00 a	35.3	35.9	35.3	90	32.7	0.0	---	0.00	0.0	---	35.3	35.2	35.2	30.373	0.00	0.00	1.238	0.000	79.7	32	47.2	78.0	1405	1	100.0	60
MONDAY			Temp	Hi	Low	Out	Dew	Wind	Wind	Wind	Hi	Hi	Wind	Heat	THW			Rain	Heat	Cool	In 	In	In 	In 	Wind	Wind	ISS 	Arc.
Date		Time	Out	Temp	Temp	Hum	Pt.	Speed	Dir	Run	Speed	Dir	Chill	Index	Index	Bar  	Rain	Rate	D-D 	D-D 	Temp	Hum	Dew	Heat	Samp	Tx 	Recept	Int.
11/12/18	1:00 a	35.0	35.3	35.0	92	32.9	0.0	ENE	0.00	4.0	ENE	35.0	34.9	34.9	30.369	0.00	0.00	1.250	0.000	79.9	31	46.6	78.0	1403	1	100.0	60
11/12/18	2:00 a	35.2	35.2	35.0	93	33.4	0.0	ENE	0.00	4.0	ENE	35.2	35.2	35.2	30.360	0.00	0.00	1.242	0.000	80.1	31	46.7	78.2	1405	1	100.0	60
11/12/18	3:00 a	35.3	35.3	35.1	94	33.7	0.0	SE	0.00	5.0	E	35.3	35.3	35.3	30.352	0.00	0.00	1.238	0.000	79.7	31	46.4	77.9	1405	1	100.0	60
11/12/18	4:00 a	35.3	35.4	35.0	95	34.0	0.0	S	0.00	5.0	S	35.3	35.3	35.3	30.359	0.00	0.00	1.238	0.000	79.2	31	45.9	77.5	1405	1	100.0	60
11/12/18	5:00 a	37.4	37.4	35.3	96	36.4	0.0	S	0.00	4.0	S	37.4	37.4	37.4	30.360	0.00	0.00	1.150	0.000	79.4	31	46.1	77.6	1405	1	100.0	60
11/12/18	6:00 a	39.5	39.5	37.4	97	38.7	0.0	SW	0.00	5.0	SW	39.5	39.6	39.6	30.380	0.00	0.00	1.063	0.000	79.9	31	46.6	78.0	1405	1	100.0	60
11/12/18	7:00 a	40.6	40.6	39.5	97	39.8	0.0	WSW	0.00	5.0	W	40.6	40.7	40.7	30.377	0.00	0.00	1.017	0.000	78.2	33	46.7	76.8	1405	1	100.0	60
11/12/18	8:00 a	43.8	43.8	40.6	96	42.7	0.0	NE	0.00	12.0	ENE	43.8	44.0	44.0	30.386	0.00	0.00	0.883	0.000	78.7	33	47.2	77.3	1405	1	100.0	60
11/12/18	9:00 a	51.3	51.3	43.8	80	45.3	7.0	NE	7.00	15.0	ENE	48.8	51.2	48.7	30.378	0.00	0.00	0.571	0.000	78.6	33	47.1	77.2	1405	1	100.0	60
11/12/18	10:00 a	54.2	54.2	51.3	77	47.1	6.0	ENE	6.00	16.0	ENE	52.6	53.8	52.2	30.363	0.00	0.00	0.450	0.000	79.8	33	48.1	78.2	1405	1	100.0	60
11/12/18	11:00 a	56.9	56.9	54.2	74	48.7	6.0	ENE	6.00	15.0	NNE	55.9	56.3	55.3	30.343	0.00	0.00	0.337	0.000	80.5	36	51.1	79.1	1405	1	100.0	60
11/12/18	12:00 p	59.8	59.8	56.9	69	49.6	5.0	ENE	5.00	14.0	ENE	59.8	59.1	59.1	30.307	0.00	0.00	0.217	0.000	81.7	35	51.4	80.3	1404	1	100.0	60
11/12/18	1:00 p	60.0	60.1	59.8	70	50.2	5.0	ENE	5.00	12.0	NNE	60.0	59.4	59.4	30.287	0.00	0.00	0.208	0.000	81.2	35	50.9	79.7	1405	1	100.0	60
11/12/18	2:00 p	59.4	60.0	59.4	73	50.7	5.0	ENE	5.00	12.0	ENE	59.3	58.9	58.8	30.264	0.00	0.00	0.233	0.000	81.6	35	51.3	80.2	1406	1	100.0	60
11/12/18	3:00 p	57.9	59.4	57.9	79	51.4	4.0	ENE	4.00	7.0	NNE	57.9	57.6	57.6	30.257	0.00	0.00	0.296	0.000	82.1	35	51.7	80.8	1404	1	100.0	60
11/12/18	4:00 p	56.7	57.9	56.7	87	52.9	4.0	ENE	4.00	10.0	NE	56.6	56.7	56.6	30.263	0.02	0.04	0.346	0.000	81.9	35	51.6	80.6	1405	1	100.0	60
11/12/18	5:00 p	55.1	56.7	55.1	93	53.1	4.0	NE	4.00	10.0	NE	54.7	55.3	54.9	30.252	0.08	0.12	0.413	0.000	81.4	35	51.1	80.0	1405	1	100.0	60
11/12/18	6:00 p	54.6	55.1	54.6	96	53.5	4.0	NE	4.00	6.0	NE	54.2	54.8	54.4	30.255	0.10	0.19	0.433	0.000	81.5	35	51.2	80.1	1405	1	100.0	60
11/12/18	7:00 p	54.4	54.6	54.4	97	53.6	5.0	NE	5.00	13.0	ENE	53.4	54.7	53.7	30.234	0.08	0.13	0.442	0.000	81.7	35	51.4	80.3	1405	1	100.0	60
11/12/18	8:00 p	54.9	54.9	54.4	98	54.3	5.0	NE	5.00	14.0	NE	54.0	55.2	54.3	30.214	0.02	0.05	0.421	0.000	80.5	36	51.1	79.1	1405	1	100.0	60
11/12/18	9:00 p	55.6	55.6	54.9	99	55.3	4.0	NE	4.00	7.0	E	55.3	56.0	55.7	30.217	0.08	0.11	0.392	0.000	80.8	36	51.4	79.4	1405	1	100.0	60
11/12/18	10:00 p	57.0	57.0	55.6	100	57.0	4.0	NE	4.00	6.0	NE	57.0	57.4	57.4	30.184	0.06	0.24	0.333	0.000	80.6	36	51.2	79.2	1405	1	100.0	60
11/12/18	11:00 p	57.7	57.7	57.0	100	57.7	0.0	SE	0.00	7.0	SSE	57.7	58.1	58.1	30.139	0.01	0.00	0.304	0.000	80.3	36	50.9	78.9	1405	1	100.0	60
11/13/18	12:00 a	58.7	58.7	57.7	100	58.7	5.0	SE	5.00	12.0	SSE	58.4	59.2	58.9	30.083	0.03	0.06	0.262	0.000	80.2	37	51.6	78.9	1405	1	100.0	60
TUESDAY			Temp	Hi	Low	Out	Dew	Wind	Wind	Wind	Hi	Hi	Wind	Heat	THW			Rain	Heat	Cool	In 	In	In 	In 	Wind	Wind	ISS 	Arc.
Date		Time	Out	Temp	Temp	Hum	Pt.	Speed	Dir	Run	Speed	Dir	Chill	Index	Index	Bar  	Rain	Rate	D-D 	D-D 	Temp	Hum	Dew	Heat	Samp	Tx 	Recept	Int.
11/13/18	1:00 a	59.4	59.4	58.7	100	59.4	10.0	SSE	10.00	17.0	S	56.3	59.9	56.8	30.017	0.06	0.09	0.233	0.000	79.4	37	50.9	78.3	1404	1	100.0	60
11/13/18	2:00 a	60.7	60.7	59.4	100	60.7	11.0	SSE	11.00	22.0	SSE	57.1	61.4	57.8	29.972	0.14	0.52	0.179	0.000	78.9	38	51.1	77.9	1404	1	100.0	60
11/13/18	3:00 a	62.0	62.0	60.7	100	62.0	12.0	SSE	12.00	25.0	SSE	58.0	62.8	58.8	29.922	0.22	0.74	0.125	0.000	79.6	38	51.8	78.5	1405	1	100.0	60
11/13/18	4:00 a	63.9	63.9	62.0	100	63.9	12.0	SSE	12.00	26.0	SSE	60.2	65.0	61.3	29.865	0.29	2.30	0.046	0.000	79.2	39	52.1	78.3	1405	1	100.0	60
11/13/18	5:00 a	65.7	65.8	63.9	100	65.7	11.0	S	11.00	24.0	SSE	62.9	67.1	64.3	29.900	0.37	9.93	0.000	0.029	79.1	40	52.7	78.3	1405	1	100.0	60
11/13/18	6:00 a	65.8	65.8	65.6	100	65.8	5.0	SW	5.00	14.0	SW	65.8	67.3	67.3	29.885	0.01	0.00	0.000	0.033	79.0	40	52.6	78.2	1405	1	100.0	60
11/13/18	7:00 a	64.3	65.8	64.3	100	64.3	7.0	SW	7.00	30.0	SSW	64.3	65.5	65.5	29.920	0.00	0.00	0.029	0.000	79.0	41	53.3	78.3	1405	1	100.0	60
11/13/18	8:00 a	62.5	64.3	62.5	99	62.2	10.0	W	10.00	26.0	W	59.9	63.4	60.8	29.936	0.00	0.00	0.104	0.000	79.3	41	53.6	78.5	1405	1	100.0	60
11/13/18	9:00 a	61.1	62.5	61.1	96	60.0	10.0	W	10.00	21.0	W	58.2	61.7	58.8	29.967	0.00	0.00	0.163	0.000	79.3	41	53.6	78.5	1405	1	100.0	60
11/13/18	10:00 a	60.7	61.1	60.1	91	58.1	7.0	W	7.00	20.0	NW	60.0	61.1	60.4	29.960	0.00	0.00	0.179	0.000	80.2	41	54.4	79.3	1405	1	100.0	60
11/13/18	11:00 a	60.5	60.8	60.5	87	56.6	7.0	WNW	7.00	18.0	W	59.8	60.7	60.0	29.984	0.00	0.00	0.188	0.000	80.3	41	54.5	79.4	1405	1	100.0	60
11/13/18	12:00 p	58.8	60.5	58.7	88	55.3	7.0	WNW	7.00	15.0	W	57.8	58.9	57.9	29.997	0.00	0.00	0.258	0.000	80.2	40	53.7	79.2	1405	1	100.0	60
11/13/18	1:00 p	58.3	58.8	58.3	87	54.4	6.0	WNW	6.00	16.0	WNW	57.6	58.3	57.6	29.981	0.00	0.00	0.279	0.000	80.8	40	54.2	79.8	1404	1	100.0	60
11/13/18	2:00 p	56.9	58.3	56.9	87	53.1	6.0	WNW	6.00	14.0	W	55.9	56.9	55.9	30.002	0.01	0.00	0.337	0.000	80.3	40	53.8	79.3	1405	1	100.0	60
11/13/18	3:00 p	55.6	56.9	55.6	89	52.4	6.0	NNW	6.00	14.0	NW	54.3	55.7	54.4	30.011	0.00	0.00	0.392	0.000	79.7	40	53.2	78.8	1405	1	100.0	60
11/13/18	4:00 p	53.9	55.6	53.8	89	50.7	7.0	NNW	7.00	21.0	WNW	51.9	54.0	52.0	30.053	0.00	0.00	0.462	0.000	80.0	40	53.5	79.0	1405	1	100.0	60
11/13/18	5:00 p	52.8	53.9	52.8	90	49.9	7.0	NW	7.00	18.0	NW	50.6	52.9	50.7	30.077	0.00	0.00	0.508	0.000	79.1	41	53.4	78.4	1405	1	100.0	60
11/13/18	6:00 p	51.9	52.8	51.9	87	48.2	7.0	NNW	7.00	19.0	NW	49.5	52.0	49.6	30.091	0.00	0.00	0.546	0.000	79.4	40	53.0	78.5	1405	1	100.0	60
11/13/18	7:00 p	51.5	51.9	51.5	87	47.8	6.0	NNW	6.00	14.0	NNW	49.5	51.6	49.6	30.124	0.02	0.00	0.563	0.000	79.6	40	53.1	78.7	1405	1	100.0	60
11/13/18	8:00 p	50.8	51.5	50.8	88	47.4	5.0	NE	5.00	14.0	NNW	49.2	50.9	49.3	30.161	0.00	0.00	0.592	0.000	80.0	40	53.5	79.0	1405	1	100.0	60
11/13/18	9:00 p	49.5	50.8	49.5	91	47.0	6.0	NNW	6.00	15.0	NNW	47.1	49.8	47.4	30.198	0.02	0.00	0.646	0.000	80.4	39	53.2	79.3	1405	1	100.0	60
11/13/18	10:00 p	48.1	49.5	48.1	89	45.0	6.0	NNW	6.00	19.0	NW	45.4	48.3	45.6	30.193	0.04	0.12	0.704	0.000	80.5	39	53.3	79.4	1405	1	100.0	60
11/13/18	11:00 p	47.9	48.1	47.8	89	44.8	6.0	NNW	6.00	18.0	NW	45.2	48.1	45.4	30.201	0.02	0.00	0.712	0.000	80.4	39	53.2	79.3	1405	1	100.0	60
11/14/18	12:00 a	48.5	48.5	47.8	82	43.3	10.0	NNW	10.00	22.0	NNW	43.6	48.5	43.6	30.224	0.00	0.00	0.688	0.000	80.3	38	52.4	79.1	1405	1	100.0	60
WEDNESDAY		Temp	Hi	Low	Out	Dew	Wind	Wind	Wind	Hi	Hi	Wind	Heat	THW			Rain	Heat	Cool	In 	In	In 	In 	Wind	Wind	ISS 	Arc.
Date		Time	Out	Temp	Temp	Hum	Pt.	Speed	Dir	Run	Speed	Dir	Chill	Index	Index	Bar  	Rain	Rate	D-D 	D-D 	Temp	Hum	Dew	Heat	Samp	Tx 	Recept	Int.
11/14/18	1:00 a	48.7	48.8	48.5	83	43.8	6.0	NE	6.00	17.0	NNW	46.1	48.7	46.1	30.212	0.00	0.00	0.679	0.000	78.8	39	51.7	77.9	1403	1	100.0	60
11/14/18	2:00 a	48.0	48.7	48.0	81	42.4	7.0	NE	7.00	21.0	N	44.8	47.9	44.7	30.234	0.00	0.00	0.708	0.000	78.7	38	51.0	77.7	1405	1	100.0	60
11/14/18	3:00 a	46.9	48.0	46.7	81	41.4	7.0	NE	7.00	20.0	ENE	43.5	46.7	43.3	30.256	0.02	0.00	0.754	0.000	77.7	38	50.1	76.7	1405	1	100.0	60
11/14/18	4:00 a	47.5	47.5	46.9	77	40.6	10.0	NE	10.00	22.0	NW	42.4	47.3	42.2	30.276	0.00	0.00	0.729	0.000	77.7	38	50.1	76.7	1405	1	100.0	60
11/14/18	5:00 a	47.3	47.5	47.2	76	40.1	10.0	N	10.00	20.0	NNE	42.2	47.0	41.9	30.305	0.00	0.00	0.738	0.000	77.8	37	49.4	76.7	1405	1	100.0	60
11/14/18	6:00 a	47.4	47.4	47.2	79	41.2	10.0	NNW	10.00	19.0	NNW	42.3	47.2	42.1	30.320	0.00	0.00	0.733	0.000	78.1	37	49.7	77.0	1405	1	100.0	60
11/14/18	7:00 a	47.0	47.6	47.0	75	39.5	10.0	NNW	10.00	19.0	NE	41.8	46.7	41.5	30.344	0.00	0.00	0.750	0.000	78.5	36	49.3	77.3	1405	1	100.0	60
11/14/18	8:00 a	46.7	47.0	46.7	74	38.9	10.0	NE	10.00	22.0	NNW	41.4	46.3	41.0	30.384	0.00	0.00	0.762	0.000	80.1	36	50.7	78.7	1405	1	100.0	60
11/14/18	9:00 a	46.6	46.7	46.4	65	35.5	11.0	NNW	11.00	22.0	NW	40.9	45.9	40.2	30.403	0.00	0.00	0.767	0.000	80.1	36	50.7	78.7	1405	1	100.0	60
11/14/18	10:00 a	46.7	47.1	46.6	54	30.9	12.0	NNW	12.00	24.0	NNW	40.5	45.7	39.5	30.407	0.00	0.00	0.762	0.000	80.5	35	50.3	79.0	1405	1	100.0	60
11/14/18	11:00 a	46.3	46.7	46.3	56	31.4	12.0	NE	12.00	24.0	NNW	40.1	45.3	39.1	30.428	0.00	0.00	0.779	0.000	79.3	35	49.3	78.0	1404	1	100.0	60
11/14/18	12:00 p	46.0	46.3	45.9	57	31.6	11.0	NE	11.00	22.0	NNW	40.2	45.1	39.3	30.418	0.00	0.00	0.792	0.000	79.5	35	49.4	78.2	1405	1	100.0	60
11/14/18	1:00 p	45.6	46.0	45.6	56	30.8	11.0	NNW	11.00	19.0	NNW	39.7	44.6	38.7	30.415	0.00	0.00	0.808	0.000	79.7	35	49.6	78.3	1405	1	100.0	60
11/14/18	2:00 p	45.6	45.8	45.6	57	31.2	10.0	NNW	10.00	19.0	NNE	40.2	44.7	39.3	30.413	0.00	0.00	0.808	0.000	79.2	35	49.2	77.9	1405	1	100.0	60
11/14/18	3:00 p	45.6	45.8	45.6	57	31.2	11.0	NNW	11.00	22.0	NNW	39.7	44.7	38.8	30.433	0.00	0.00	0.808	0.000	78.4	34	47.7	77.1	1405	1	100.0	60
11/14/18	4:00 p	44.9	45.6	44.8	62	32.7	10.0	NNW	10.00	19.0	NNW	39.4	44.1	38.6	30.437	0.00	0.00	0.837	0.000	78.1	34	47.4	76.7	1405	1	100.0	60
11/14/18	5:00 p	44.6	44.9	44.6	64	33.2	7.0	NNW	7.00	17.0	N	40.7	43.9	40.0	30.423	0.00	0.00	0.850	0.000	78.0	34	47.4	76.6	1405	1	100.0	60
11/14/18	6:00 p	44.7	44.7	44.6	68	34.8	7.0	NE	7.00	21.0	ENE	40.8	44.1	40.2	30.442	0.00	0.00	0.846	0.000	78.0	34	47.4	76.6	1405	1	100.0	60
11/14/18	7:00 p	45.4	45.5	44.7	67	35.1	12.0	NE	12.00	24.0	ENE	39.0	44.8	38.4	30.442	0.00	0.00	0.817	0.000	80.3	33	48.6	78.6	1405	1	100.0	60
11/14/18	8:00 p	44.9	45.4	44.9	67	34.6	11.0	NE	11.00	21.0	E	38.9	44.3	38.3	30.455	0.00	0.00	0.837	0.000	80.7	32	48.1	78.9	1405	1	100.0	60
11/14/18	9:00 p	44.9	44.9	44.9	68	35.0	10.0	NE	10.00	19.0	E	39.4	44.3	38.8	30.451	0.00	0.00	0.837	0.000	80.0	33	48.3	78.3	1405	1	100.0	60
11/14/18	10:00 p	45.1	45.1	44.9	70	35.9	11.0	NE	11.00	20.0	NE	39.1	44.6	38.6	30.452	0.00	0.00	0.829	0.000	79.7	32	47.2	78.0	1405	1	100.0	60
11/14/18	11:00 p	45.4	45.4	45.1	72	36.9	11.0	NE	11.00	19.0	ENE	39.5	44.9	39.0	30.451	0.00	0.00	0.817	0.000	79.5	32	47.1	77.8	1404	1	100.0	60
11/15/18	12:00 a	44.9	45.4	44.9	73	36.8	11.0	NE	11.00	22.0	E	38.9	44.5	38.5	30.423	0.00	0.00	0.837	0.000	80.3	32	47.7	78.5	1405	1	100.0	60
THURSDAY		Temp	Hi	Low	Out	Dew	Wind	Wind	Wind	Hi	Hi	Wind	Heat	THW			Rain	Heat	Cool	In 	In	In 	In 	Wind	Wind	ISS 	Arc.
Date		Time	Out	Temp	Temp	Hum	Pt.	Speed	Dir	Run	Speed	Dir	Chill	Index	Index	Bar  	Rain	Rate	D-D 	D-D 	Temp	Hum	Dew	Heat	Samp	Tx 	Recept	Int.
11/15/18	1:00 a	45.0	45.0	44.8	76	37.9	12.0	NE	12.00	21.0	E	38.6	44.6	38.2	30.412	0.00	0.00	0.833	0.000	78.4	33	46.9	77.0	1403	1	100.0	60
11/15/18	2:00 a	45.2	45.5	45.0	83	40.3	10.0	NE	10.00	23.0	ENE	39.7	45.1	39.6	30.393	0.00	0.00	0.825	0.000	78.3	33	46.8	76.9	1405	1	100.0	60
11/15/18	3:00 a	46.6	46.6	45.0	86	42.6	10.0	NE	10.00	20.0	NE	41.3	46.6	41.3	30.363	0.01	0.00	0.767	0.000	78.3	33	46.8	76.9	1405	1	100.0	60
11/15/18	4:00 a	48.4	48.4	46.6	84	43.8	12.0	ENE	12.00	23.0	E	42.5	48.4	42.5	30.344	0.00	0.00	0.692	0.000	77.9	33	46.5	76.5	1405	1	100.0	60
11/15/18	5:00 a	49.3	49.3	48.3	83	44.4	12.0	NE	12.00	20.0	NE	43.5	49.3	43.5	30.339	0.01	0.00	0.654	0.000	77.5	33	46.1	76.3	1405	1	100.0	60
11/15/18	6:00 a	49.2	49.8	49.2	83	44.3	15.0	ENE	15.00	29.0	ENE	42.3	49.2	42.3	30.308	0.00	0.00	0.658	0.000	77.2	33	45.9	76.1	1405	1	100.0	60
11/15/18	7:00 a	48.7	49.3	48.6	90	45.9	13.0	ENE	13.00	25.0	ENE	42.4	49.0	42.7	30.263	0.02	0.00	0.679	0.000	77.5	33	46.1	76.3	1405	1	100.0	60
11/15/18	8:00 a	49.8	49.9	48.7	93	47.9	14.0	ENE	14.00	27.0	ENE	43.3	50.2	43.7	30.219	0.01	0.00	0.633	0.000	78.1	33	46.6	76.7	1405	1	100.0	60
11/15/18	9:00 a	50.5	50.5	49.8	95	49.1	13.0	ENE	13.00	28.0	ENE	44.5	51.0	45.0	30.176	0.03	0.07	0.604	0.000	80.1	33	48.4	78.4	1404	1	100.0	60
11/15/18	10:00 a	50.8	50.8	50.4	97	50.0	13.0	ENE	13.00	29.0	NE	44.8	51.3	45.3	30.133	0.11	0.38	0.592	0.000	79.4	33	47.8	77.9	1405	1	100.0	60
11/15/18	11:00 a	52.1	52.1	50.8	98	51.6	12.0	ENE	12.00	26.0	NE	46.7	52.5	47.1	30.078	0.14	0.29	0.538	0.000	79.0	35	49.0	77.8	1406	1	100.0	60
11/15/18	12:00 p	53.9	53.9	52.1	98	53.3	12.0	ENE	12.00	28.0	NE	48.8	54.2	49.1	30.009	0.06	0.12	0.462	0.000	78.3	36	49.1	77.1	1404	1	100.0	60
11/15/18	1:00 p	55.6	55.6	53.9	99	55.3	12.0	ENE	12.00	24.0	E	50.7	56.0	51.1	29.938	0.10	0.25	0.392	0.000	78.5	36	49.3	77.3	1405	1	100.0	60
11/15/18	2:00 p	57.7	57.7	55.6	99	57.4	11.0	ENE	11.00	23.0	ENE	53.7	58.1	54.1	29.864	0.10	0.25	0.304	0.000	78.8	36	49.6	77.7	1405	1	100.0	60
11/15/18	3:00 p	58.9	58.9	57.7	99	58.6	12.0	ENE	12.00	27.0	ENE	54.5	59.4	55.0	29.738	0.05	0.27	0.254	0.000	78.0	37	49.6	76.9	1405	1	100.0	60
11/15/18	4:00 p	60.7	60.7	58.9	100	60.7	10.0	ENE	10.00	25.0	ENE	57.8	61.4	58.5	29.697	0.02	0.10	0.179	0.000	78.8	37	50.3	77.7	1405	1	100.0	60
11/15/18	5:00 p	61.8	61.8	60.7	100	61.8	4.0	ENE	4.00	13.0	ENE	61.8	62.6	62.6	29.659	0.07	1.05	0.133	0.000	78.3	38	50.6	77.3	1405	1	100.0	60
11/15/18	6:00 p	61.8	61.9	61.7	100	61.8	4.0	W	4.00	7.0	WNW	61.8	62.6	62.6	29.640	0.01	0.00	0.133	0.000	79.0	38	51.2	78.0	1405	1	100.0	60
11/15/18	7:00 p	60.8	61.8	60.8	100	60.8	5.0	W	5.00	14.0	WNW	60.8	61.5	61.5	29.641	0.00	0.00	0.175	0.000	79.7	38	51.8	78.6	1405	1	100.0	60
11/15/18	8:00 p	58.3	60.8	58.3	98	57.7	7.0	SW	7.00	20.0	WSW	57.2	58.7	57.6	29.663	0.01	0.00	0.279	0.000	81.0	38	53.0	79.8	1405	1	100.0	60
11/15/18	9:00 p	54.2	58.3	54.2	98	53.6	7.0	W	7.00	20.0	W	52.2	54.5	52.5	29.677	0.00	0.00	0.450	0.000	81.3	38	53.3	80.2	1405	1	100.0	60
11/15/18	10:00 p	49.7	54.2	49.7	97	48.9	10.0	WSW	10.00	25.0	WSW	44.9	50.3	45.5	29.699	0.00	0.00	0.637	0.000	81.3	38	53.3	80.2	1405	1	100.0	60
11/15/18	11:00 p	45.3	49.7	45.3	97	44.5	11.0	W	11.00	24.0	SW	39.4	45.6	39.7	29.704	0.00	0.00	0.821	0.000	81.4	37	52.6	80.2	1404	1	100.0	60
11/16/18	12:00 a	43.2	45.3	43.2	97	42.4	11.0	SW	11.00	28.0	SW	36.9	43.4	37.1	29.727	0.00	0.00	0.908	0.000	81.3	37	52.5	80.1	1405	1	100.0	60
FRIDAY			Temp	Hi	Low	Out	Dew	Wind	Wind	Wind	Hi	Hi	Wind	Heat	THW			Rain	Heat	Cool	In 	In	In 	In 	Wind	Wind	ISS 	Arc.
Date		Time	Out	Temp	Temp	Hum	Pt.	Speed	Dir	Run	Speed	Dir	Chill	Index	Index	Bar  	Rain	Rate	D-D 	D-D 	Temp	Hum	Dew	Heat	Samp	Tx 	Recept	Int.
11/16/18	1:00 a	42.2	43.3	42.2	97	41.4	11.0	W	11.00	28.0	S	35.7	42.3	35.8	29.755	0.00	0.00	0.950	0.000	79.5	37	50.9	78.3	1404	1	100.0	60
11/16/18	2:00 a	41.1	42.2	41.1	95	39.8	12.0	W	12.00	31.0	WNW	34.1	41.2	34.2	29.779	0.00	0.00	0.996	0.000	77.8	37	49.4	76.7	1405	1	100.0	60
11/16/18	3:00 a	41.3	41.3	41.1	95	40.0	11.0	W	11.00	26.0	NW	34.7	41.4	34.8	29.791	0.00	0.00	0.988	0.000	77.5	37	49.2	76.5	1405	1	100.0	60
11/16/18	4:00 a	42.0	42.0	41.3	94	40.4	11.0	W	11.00	24.0	WNW	35.5	42.1	35.6	29.803	0.00	0.00	0.958	0.000	77.5	37	49.2	76.5	1405	1	100.0	60
11/16/18	5:00 a	41.4	42.0	41.4	94	39.8	7.0	W	7.00	21.0	WSW	36.8	41.5	36.9	29.827	0.00	0.00	0.983	0.000	77.9	37	49.5	76.8	1405	1	100.0	60
11/16/18	6:00 a	41.0	41.4	40.9	93	39.1	7.0	W	7.00	20.0	WSW	36.3	41.0	36.3	29.858	0.00	0.00	1.000	0.000	79.5	36	50.2	78.2	1405	1	100.0	60
11/16/18	7:00 a	40.6	41.0	40.5	93	38.7	7.0	W	7.00	22.0	SW	35.8	40.6	35.8	29.898	0.00	0.00	1.017	0.000	78.4	36	49.2	77.2	1404	1	100.0	60
11/16/18	8:00 a	41.2	41.2	40.5	90	38.5	7.0	W	7.00	20.0	WSW	36.5	41.1	36.4	29.927	0.00	0.00	0.992	0.000	80.1	35	50.0	78.6	1405	1	100.0	60
11/16/18	9:00 a	43.2	43.2	41.2	85	39.0	10.0	W	10.00	23.0	WSW	37.3	43.1	37.2	29.936	0.00	0.00	0.908	0.000	80.5	34	49.5	78.9	1405	1	100.0	60
11/16/18	10:00 a	45.4	45.4	43.2	81	39.9	10.0	W	10.00	23.0	WSW	39.9	45.2	39.7	29.947	0.00	0.00	0.817	0.000	81.4	34	50.3	79.9	1405	1	100.0	60
11/16/18	11:00 a	47.6	47.6	45.4	78	41.1	10.0	WSW	10.00	21.0	SW	42.5	47.4	42.3	29.946	0.00	0.00	0.725	0.000	81.0	34	50.0	79.4	1405	1	100.0	60
11/16/18	12:00 p	49.8	49.8	47.6	71	40.8	10.0	W	10.00	20.0	WSW	45.1	49.4	44.7	29.933	0.00	0.00	0.633	0.000	81.8	34	50.7	80.3	1405	1	100.0	60
11/16/18	1:00 p	51.7	51.7	49.8	68	41.5	11.0	W	11.00	21.0	NW	46.7	51.1	46.1	29.926	0.00	0.00	0.554	0.000	81.0	34	50.0	79.4	1405	1	100.0	60
11/16/18	2:00 p	53.1	53.1	51.7	65	41.6	7.0	W	7.00	20.0	WSW	50.9	52.2	50.0	29.906	0.00	0.00	0.496	0.000	82.7	33	50.7	81.2	1405	1	100.0	60
11/16/18	3:00 p	53.7	53.8	53.1	64	41.8	7.0	W	7.00	18.0	WSW	51.6	52.7	50.6	29.921	0.00	0.00	0.471	0.000	82.0	34	50.9	80.6	1405	1	100.0	60
11/16/18	4:00 p	52.5	53.7	52.5	69	42.6	7.0	W	7.00	17.0	W	50.2	51.8	49.5	29.940	0.00	0.00	0.521	0.000	82.0	34	50.9	80.6	1405	1	100.0	60
11/16/18	5:00 p	50.5	52.4	50.5	70	41.1	7.0	W	7.00	18.0	WSW	47.8	50.0	47.3	29.967	0.00	0.00	0.604	0.000	80.6	34	49.6	79.0	1405	1	100.0	60
11/16/18	6:00 p	47.8	50.5	47.8	76	40.6	5.0	W	5.00	14.0	W	45.7	47.5	45.4	29.995	0.00	0.00	0.717	0.000	80.1	34	49.2	78.5	1405	1	100.0	60
11/16/18	7:00 p	45.1	47.8	45.1	82	39.9	0.0	WSW	0.00	7.0	W	45.1	44.9	44.9	30.022	0.00	0.00	0.829	0.000	80.0	34	49.1	78.4	1404	1	100.0	60
11/16/18	8:00 p	43.4	45.1	43.4	86	39.5	4.0	SW	4.00	6.0	SW	41.2	43.3	41.1	30.042	0.00	0.00	0.900	0.000	79.7	35	49.6	78.3	1405	1	100.0	60
11/16/18	9:00 p	41.8	43.4	41.8	90	39.1	4.0	SW	4.00	7.0	SW	39.4	41.8	39.4	30.048	0.00	0.00	0.967	0.000	79.4	34	48.6	78.0	1405	1	100.0	60
11/16/18	10:00 p	40.7	41.8	40.7	91	38.3	0.0	SW	0.00	4.0	SW	40.7	40.6	40.6	30.068	0.00	0.00	1.012	0.000	79.0	34	48.2	77.7	1405	1	100.0	60
11/16/18	11:00 p	39.4	40.7	39.4	93	37.5	0.0	SW	0.00	6.0	SW	39.4	39.4	39.4	30.079	0.00	0.00	1.067	0.000	78.6	34	47.9	77.3	1405	1	100.0	60
11/17/18	12:00 a	38.6	39.4	38.6	94	37.0	0.0	SW	0.00	5.0	SW	38.6	38.6	38.6	30.090	0.00	0.00	1.100	0.000	78.2	34	47.5	76.8	1405	1	100.0	60
SATURDAY		Temp	Hi	Low	Out	Dew	Wind	Wind	Wind	Hi	Hi	Wind	Heat	THW			Rain	Heat	Cool	In 	In	In 	In 	Wind	Wind	ISS 	Arc.
Date		Time	Out	Temp	Temp	Hum	Pt.	Speed	Dir	Run	Speed	Dir	Chill	Index	Index	Bar  	Rain	Rate	D-D 	D-D 	Temp	Hum	Dew	Heat	Samp	Tx 	Recept	Int.
11/17/18	1:00 a	38.0	38.7	38.0	94	36.4	0.0	SW	0.00	5.0	SW	38.0	38.0	38.0	30.097	0.00	0.00	1.125	0.000	76.5	35	46.8	75.4	1404	1	100.0	60
11/17/18	2:00 a	37.4	38.0	37.3	94	35.8	0.0	NE	0.00	7.0	NE	37.4	37.4	37.4	30.114	0.00	0.00	1.150	0.000	76.3	34	45.9	75.1	1405	1	100.0	60
11/17/18	3:00 a	36.4	37.3	36.4	95	35.1	0.0	NE	0.00	5.0	NE	36.4	36.4	36.4	30.128	0.00	0.00	1.192	0.000	76.1	34	45.7	74.9	1405	1	100.0	60
11/17/18	4:00 a	35.6	36.3	35.6	95	34.3	0.0	SE	0.00	5.0	SE	35.6	35.6	35.6	30.134	0.00	0.00	1.225	0.000	75.8	34	45.4	74.5	1404	1	100.0	60
11/17/18	5:00 a	35.5	35.6	35.5	96	34.5	4.0	WNW	4.00	7.0	WNW	32.1	35.5	32.1	30.163	0.00	0.00	1.229	0.000	75.5	34	45.2	74.2	1406	1	100.0	60
11/17/18	6:00 a	35.3	35.7	35.3	96	34.3	0.0	WNW	0.00	5.0	WNW	35.3	35.3	35.3	30.191	0.00	0.00	1.238	0.000	75.4	33	44.3	74.0	1404	1	100.0	60
11/17/18	7:00 a	34.7	35.3	34.7	96	33.7	0.0	WNW	0.00	4.0	WNW	34.7	34.7	34.7	30.219	0.00	0.00	1.262	0.000	76.2	33	45.0	74.9	1405	1	100.0	60
11/17/18	8:00 a	37.1	37.1	34.7	99	36.8	0.0	WNW	0.00	4.0	WNW	37.1	37.2	37.2	30.258	0.00	0.00	1.163	0.000	77.6	32	45.4	76.3	1405	1	100.0	60
11/17/18	9:00 a	44.2	44.2	37.2	97	43.4	4.0	NW	4.00	14.0	NNW	42.1	44.5	42.4	30.274	0.00	0.00	0.867	0.000	77.9	33	46.5	76.5	1405	1	100.0	60
11/17/18	10:00 a	49.4	49.4	44.2	76	42.1	7.0	NE	7.00	20.0	ENE	46.5	49.2	46.3	30.277	0.00	0.00	0.650	0.000	79.1	32	46.7	77.5	1405	1	100.0	60
11/17/18	11:00 a	50.0	50.2	49.4	70	40.6	11.0	NE	11.00	19.0	NNW	44.8	49.6	44.4	30.285	0.00	0.00	0.625	0.000	80.6	32	48.0	78.8	1405	1	100.0	60
11/17/18	12:00 p	50.7	50.7	49.9	68	40.5	11.0	NNW	11.00	19.0	ENE	45.6	50.2	45.1	30.267	0.00	0.00	0.596	0.000	81.3	31	47.8	79.4	1405	1	100.0	60
11/17/18	1:00 p	51.3	51.3	50.7	69	41.5	7.0	ENE	7.00	16.0	NW	48.8	50.7	48.2	30.241	0.00	0.00	0.571	0.000	80.8	32	48.2	79.0	1405	1	100.0	60
11/17/18	2:00 p	50.7	51.5	50.7	72	42.0	7.0	ENE	7.00	15.0	NE	48.0	50.3	47.6	30.243	0.00	0.00	0.596	0.000	81.2	33	49.4	79.5	1405	1	100.0	60
11/17/18	3:00 p	50.4	50.8	50.4	72	41.7	7.0	ENE	7.00	15.0	NE	47.7	50.0	47.3	30.238	0.00	0.00	0.608	0.000	81.9	32	49.1	80.2	1405	1	100.0	60
11/17/18	4:00 p	49.9	50.4	49.9	72	41.2	6.0	NE	6.00	14.0	ENE	47.6	49.6	47.3	30.245	0.00	0.00	0.629	0.000	81.8	32	49.1	80.1	1404	1	100.0	60
11/17/18	5:00 p	48.7	49.9	48.7	77	41.8	4.0	ENE	4.00	10.0	ENE	47.4	48.5	47.2	30.256	0.00	0.00	0.679	0.000	81.3	32	48.6	79.5	1405	1	100.0	60
11/17/18	6:00 p	45.8	48.7	45.8	82	40.6	0.0	---	0.00	0.0	---	45.8	45.7	45.7	30.275	0.00	0.00	0.800	0.000	80.7	33	48.9	79.0	1405	1	100.0	60
11/17/18	7:00 p	43.5	45.8	43.5	87	39.9	0.0	---	0.00	0.0	---	43.5	43.5	43.5	30.289	0.00	0.00	0.896	0.000	82.0	32	49.2	80.3	1405	1	100.0	60
11/17/18	8:00 p	41.8	43.5	41.8	89	38.8	0.0	NE	0.00	4.0	NE	41.8	41.7	41.7	30.300	0.00	0.00	0.967	0.000	81.8	32	49.1	80.1	1405	1	100.0	60
11/17/18	9:00 p	40.5	41.8	40.4	91	38.1	0.0	---	0.00	0.0	---	40.5	40.4	40.4	30.300	0.00	0.00	1.021	0.000	82.2	32	49.4	80.5	1405	1	100.0	60
11/17/18	10:00 p	39.3	40.4	39.3	92	37.2	0.0	NE	0.00	4.0	NE	39.3	39.3	39.3	30.307	0.00	0.00	1.071	0.000	82.0	32	49.2	80.3	1405	1	100.0	60
11/17/18	11:00 p	38.5	39.3	38.5	93	36.7	0.0	---	0.00	0.0	---	38.5	38.5	38.5	30.310	0.00	0.00	1.104	0.000	81.3	32	48.6	79.5	1405	1	100.0	60
11/18/18	12:00 a	37.4	38.5	37.4	94	35.8	0.0	NE	0.00	4.0	NE	37.4	37.4	37.4	30.308	0.00	0.00	1.150	0.000	81.0	32	48.4	79.2	1406	1	100.0	60

SUNDAY			Temp	Hi	Low	Out	Dew	Wind	Wind	Wind	Hi	Hi	Wind	Heat	THW			Rain	Heat	Cool	In 	In	In 	In 	Wind	Wind	ISS 	Arc.
Date		Time	Out	Temp	Temp	Hum	Pt.	Speed	Dir	Run	Speed	Dir	Chill	Index	Index	Bar  	Rain	Rate	D-D 	D-D 	Temp	Hum	Dew	Heat	Samp	Tx 	Recept	Int.
11/18/18	1:00 a	36.8	37.4	36.8	94	35.2	0.0	NE	0.00	4.0	NE	36.8	36.8	36.8	30.308	0.00	0.00	1.175	0.000	79.6	32	47.1	77.9	1402	1	100.0	60
11/18/18	2:00 a	36.4	36.8	36.4	95	35.1	0.0	NE	0.00	4.0	NE	36.4	36.4	36.4	30.303	0.00	0.00	1.192	0.000	77.7	32	45.5	76.3	1405	1	100.0	60
11/18/18	3:00 a	36.4	36.5	36.4	95	35.1	0.0	---	0.00	0.0	---	36.4	36.4	36.4	30.302	0.00	0.00	1.192	0.000	77.2	32	45.0	76.0	1405	1	100.0	60
11/18/18	4:00 a	36.5	36.5	36.4	96	35.5	0.0	NE	0.00	4.0	NE	36.5	36.5	36.5	30.300	0.00	0.00	1.188	0.000	76.7	32	44.6	75.5	1405	1	100.0	60
11/18/18	5:00 a	36.3	36.6	36.3	96	35.3	0.0	NE	0.00	4.0	NE	36.3	36.3	36.3	30.310	0.00	0.00	1.196	0.000	76.9	32	44.8	75.8	1405	1	100.0	60
11/18/18	6:00 a	35.7	36.4	35.7	95	34.4	0.0	NE	0.00	4.0	NE	35.7	35.7	35.7	30.323	0.00	0.00	1.221	0.000	77.3	32	45.1	76.1	1405	1	100.0	60
11/18/18	7:00 a	35.1	35.7	35.1	96	34.1	0.0	NE	0.00	4.0	NE	35.1	35.1	35.1	30.335	0.00	0.00	1.246	0.000	77.5	31	44.5	76.2	1405	1	100.0	60

			Temp	Hi	Low	Out	Dew	Wind	Wind	Wind	Hi	Hi	Wind	Heat	THW			Rain	Heat	Cool	In 	In	In 	In 	Wind	Wind	ISS 	Arc.
Date		Time	Out	Temp	Temp	Hum	Pt.	Speed	Dir	Run	Speed	Dir	Chill	Index	Index	Bar  	Rain	Rate	D-D 	D-D 	Temp	Hum	Dew	Heat	Samp	Tx 	Recept	Int.



'undefined'=== typeof _trfq || (window._trfq = []);'undefined'=== typeof _trfd && (window._trfd=[]),_trfd.push({'tccl.baseHost':'secureserver.net'}),_trfd.push({'ap':'cpsh'},{'server':'a2plcpnl0698'}) // Monitoring performance to make your website faster. If you want to opt-out, please contact web hosting support.